<?xml version="1.0" encoding="UTF-8" standalone="no" ?>
<gpx xmlns="http://www.topografix.com/GPX/1/1" xmlns:xsi="http://www.w3.org/2001/XMLSchema-instance" xsi:schemaLocation="http://www.topografix.com/GPX/1/1 http://www.topografix.com/GPX/1/1/gpx.xsd" version="1.1" creator="VisuGPX - https://www.visugpx.com">
  <metadata>
    <name>Gravel - 35 - Aydat</name>
  </metadata>
  <trk>
    <name><![CDATA[Gravel - 35 - Aydat]]></name>
    <extensions>
      <line xmlns="http://www.topografix.com/GPX/gpx_style/0/2">
        <color>0000ff</color>
        <width>4</width>
          <extensions>
            <sens>1</sens>
          </extensions>
      </line>
    </extensions>
    <trkseg>
      <trkpt lat="45.75023" lon="3.08556">
        <ele>441.838438</ele>
        <time>2022-08-21T10:16:26.389Z</time>
      </trkpt>
      <trkpt lat="45.75023" lon="3.08555">
        <ele>441.838438</ele>
        <time>2022-08-21T10:16:26.720Z</time>
      </trkpt>
      <trkpt lat="45.75016" lon="3.08549">
        <ele>441.838438</ele>
        <time>2022-08-21T10:16:28.586Z</time>
      </trkpt>
      <trkpt lat="45.75012" lon="3.08517">
        <ele>441.838438</ele>
        <time>2022-08-21T10:16:35.187Z</time>
      </trkpt>
      <trkpt lat="45.75009" lon="3.08494">
        <ele>441.838438</ele>
        <time>2022-08-21T10:16:39.346Z</time>
      </trkpt>
      <trkpt lat="45.75009" lon="3.0849">
        <ele>441.838438</ele>
        <time>2022-08-21T10:16:40.167Z</time>
      </trkpt>
      <trkpt lat="45.75007" lon="3.08476">
        <ele>441.838438</ele>
        <time>2022-08-21T10:16:43.572Z</time>
      </trkpt>
      <trkpt lat="45.75006" lon="3.08464">
        <ele>441.838438</ele>
        <time>2022-08-21T10:16:45.932Z</time>
      </trkpt>
      <trkpt lat="45.75006" lon="3.08458">
        <ele>441.838438</ele>
        <time>2022-08-21T10:16:47.221Z</time>
      </trkpt>
      <trkpt lat="45.75005" lon="3.08437">
        <ele>441.838438</ele>
        <time>2022-08-21T10:16:51.387Z</time>
      </trkpt>
      <trkpt lat="45.75015" lon="3.08418">
        <ele>442.298287</ele>
        <time>2022-08-21T10:16:56.968Z</time>
      </trkpt>
      <trkpt lat="45.75011" lon="3.08416">
        <ele>442.435617</ele>
        <time>2022-08-21T10:16:58.353Z</time>
      </trkpt>
      <trkpt lat="45.75001" lon="3.08384">
        <ele>443.214402</ele>
        <time>2022-08-21T10:17:06.581Z</time>
      </trkpt>
      <trkpt lat="45.74997" lon="3.08383">
        <ele>443.330972</ele>
        <time>2022-08-21T10:17:07.739Z</time>
      </trkpt>
      <trkpt lat="45.74995" lon="3.08359">
        <ele>443.861929</ele>
        <time>2022-08-21T10:17:13.301Z</time>
      </trkpt>
      <trkpt lat="45.74993" lon="3.08328">
        <ele>444.551049</ele>
        <time>2022-08-21T10:17:21.903Z</time>
      </trkpt>
      <trkpt lat="45.7496" lon="3.08221">
        <ele>447.135483</ele>
        <time>2022-08-21T10:17:56.568Z</time>
      </trkpt>
      <trkpt lat="45.74919" lon="3.08059">
        <ele>452.182497</ele>
        <time>2022-08-21T10:18:53.264Z</time>
      </trkpt>
      <trkpt lat="45.74911" lon="3.08">
        <ele>454.009474</ele>
        <time>2022-08-21T10:19:11.964Z</time>
      </trkpt>
      <trkpt lat="45.74895" lon="3.07941">
        <ele>455.749589</ele>
        <time>2022-08-21T10:19:30.090Z</time>
      </trkpt>
      <trkpt lat="45.74876" lon="3.07901">
        <ele>456.776378</ele>
        <time>2022-08-21T10:19:43.701Z</time>
      </trkpt>
      <trkpt lat="45.74871" lon="3.07872">
        <ele>457.442972</ele>
        <time>2022-08-21T10:19:52.380Z</time>
      </trkpt>
      <trkpt lat="45.74874" lon="3.0786">
        <ele>457.715397</ele>
        <time>2022-08-21T10:19:56.159Z</time>
      </trkpt>
      <trkpt lat="45.74852" lon="3.07834">
        <ele>458.602075</ele>
        <time>2022-08-21T10:20:06.494Z</time>
      </trkpt>
      <trkpt lat="45.74844" lon="3.07818">
        <ele>459.038144</ele>
        <time>2022-08-21T10:20:11.328Z</time>
      </trkpt>
      <trkpt lat="45.7484" lon="3.078">
        <ele>459.430152</ele>
        <time>2022-08-21T10:20:15.577Z</time>
      </trkpt>
      <trkpt lat="45.7482" lon="3.07686">
        <ele>462.248513</ele>
        <time>2022-08-21T10:20:44.529Z</time>
      </trkpt>
      <trkpt lat="45.74803" lon="3.07585">
        <ele>465.057299</ele>
        <time>2022-08-21T10:21:13.200Z</time>
      </trkpt>
      <trkpt lat="45.74799" lon="3.07562">
        <ele>465.691476</ele>
        <time>2022-08-21T10:21:20.608Z</time>
      </trkpt>
      <trkpt lat="45.74789" lon="3.07503">
        <ele>467.33283</ele>
        <time>2022-08-21T10:21:40.259Z</time>
      </trkpt>
      <trkpt lat="45.74743" lon="3.07229">
        <ele>477.674615</ele>
        <time>2022-08-21T10:23:17.536Z</time>
      </trkpt>
      <trkpt lat="45.7474" lon="3.07106">
        <ele>482.226674</ele>
        <time>2022-08-21T10:23:59.545Z</time>
      </trkpt>
      <trkpt lat="45.74736" lon="3.07082">
        <ele>483.132538</ele>
        <time>2022-08-21T10:24:07.977Z</time>
      </trkpt>
      <trkpt lat="45.74733" lon="3.07073">
        <ele>483.526996</ele>
        <time>2022-08-21T10:24:11.588Z</time>
      </trkpt>
      <trkpt lat="45.74729" lon="3.07064">
        <ele>483.909748</ele>
        <time>2022-08-21T10:24:15.155Z</time>
      </trkpt>
      <trkpt lat="45.74725" lon="3.07056">
        <ele>484.282832</ele>
        <time>2022-08-21T10:24:18.556Z</time>
      </trkpt>
      <trkpt lat="45.74709" lon="3.07035">
        <ele>485.40712</ele>
        <time>2022-08-21T10:24:28.795Z</time>
      </trkpt>
      <trkpt lat="45.74687" lon="3.07024">
        <ele>486.625787</ele>
        <time>2022-08-21T10:24:39.764Z</time>
      </trkpt>
      <trkpt lat="45.74674" lon="3.07017">
        <ele>487.368047</ele>
        <time>2022-08-21T10:24:46.698Z</time>
      </trkpt>
      <trkpt lat="45.74659" lon="3.0701">
        <ele>488.119819</ele>
        <time>2022-08-21T10:24:54.032Z</time>
      </trkpt>
      <trkpt lat="45.74647" lon="3.07005">
        <ele>488.764221</ele>
        <time>2022-08-21T10:25:00.234Z</time>
      </trkpt>
      <trkpt lat="45.74629" lon="3.06995">
        <ele>489.696899</ele>
        <time>2022-08-21T10:25:09.369Z</time>
      </trkpt>
      <trkpt lat="45.74558" lon="3.06985">
        <ele>493.204297</ele>
        <time>2022-08-21T10:25:44.040Z</time>
      </trkpt>
      <trkpt lat="45.74263" lon="3.0702">
        <ele>505.846938</ele>
        <time>2022-08-21T10:27:53.063Z</time>
      </trkpt>
      <trkpt lat="45.7421" lon="3.07015">
        <ele>507.846087</ele>
        <time>2022-08-21T10:28:14.156Z</time>
      </trkpt>
      <trkpt lat="45.74119" lon="3.06984">
        <ele>511.326268</ele>
        <time>2022-08-21T10:28:50.658Z</time>
      </trkpt>
      <trkpt lat="45.74028" lon="3.06944">
        <ele>514.939263</ele>
        <time>2022-08-21T10:29:29.492Z</time>
      </trkpt>
      <trkpt lat="45.73949" lon="3.06915">
        <ele>518.159386</ele>
        <time>2022-08-21T10:30:04.475Z</time>
      </trkpt>
      <trkpt lat="45.73883" lon="3.06882">
        <ele>521.129253</ele>
        <time>2022-08-21T10:30:35.092Z</time>
      </trkpt>
      <trkpt lat="45.73804" lon="3.0682">
        <ele>524.996102</ele>
        <time>2022-08-21T10:31:14.524Z</time>
      </trkpt>
      <trkpt lat="45.73723" lon="3.06751">
        <ele>529.342255</ele>
        <time>2022-08-21T10:31:55.702Z</time>
      </trkpt>
      <trkpt lat="45.73699" lon="3.06718">
        <ele>530.83665</ele>
        <time>2022-08-21T10:32:10.370Z</time>
      </trkpt>
      <trkpt lat="45.73676" lon="3.06681">
        <ele>532.442244</ele>
        <time>2022-08-21T10:32:27.241Z</time>
      </trkpt>
      <trkpt lat="45.73657" lon="3.06635">
        <ele>534.424759</ele>
        <time>2022-08-21T10:32:45.576Z</time>
      </trkpt>
      <trkpt lat="45.73625" lon="3.06529">
        <ele>538.928283</ele>
        <time>2022-08-21T10:33:24.491Z</time>
      </trkpt>
      <trkpt lat="45.73595" lon="3.06476">
        <ele>541.6334</ele>
        <time>2022-08-21T10:33:49.920Z</time>
      </trkpt>
      <trkpt lat="45.73543" lon="3.06438">
        <ele>545.052047</ele>
        <time>2022-08-21T10:34:21.200Z</time>
      </trkpt>
      <trkpt lat="45.73379" lon="3.06403">
        <ele>555.179358</ele>
        <time>2022-08-21T10:35:48.441Z</time>
      </trkpt>
      <trkpt lat="45.7336" lon="3.064">
        <ele>556.366849</ele>
        <time>2022-08-21T10:35:58.174Z</time>
      </trkpt>
      <trkpt lat="45.73342" lon="3.06394">
        <ele>557.509851</ele>
        <time>2022-08-21T10:36:07.587Z</time>
      </trkpt>
      <trkpt lat="45.73254" lon="3.06374">
        <ele>563.066658</ele>
        <time>2022-08-21T10:36:53.206Z</time>
      </trkpt>
      <trkpt lat="45.73251" lon="3.06373">
        <ele>563.250157</ele>
        <time>2022-08-21T10:36:54.816Z</time>
      </trkpt>
      <trkpt lat="45.73229" lon="3.06369">
        <ele>564.625706</ele>
        <time>2022-08-21T10:37:06.930Z</time>
      </trkpt>
      <trkpt lat="45.73159" lon="3.06366">
        <ele>571.577557</ele>
        <time>2022-08-21T10:37:50.737Z</time>
      </trkpt>
      <trkpt lat="45.73149" lon="3.06369">
        <ele>572.619176</ele>
        <time>2022-08-21T10:37:57.493Z</time>
      </trkpt>
      <trkpt lat="45.73134" lon="3.06329">
        <ele>575.942126</ele>
        <time>2022-08-21T10:38:21.056Z</time>
      </trkpt>
      <trkpt lat="45.73129" lon="3.06273">
        <ele>579.987591</ele>
        <time>2022-08-21T10:38:51.426Z</time>
      </trkpt>
      <trkpt lat="45.73126" lon="3.06224">
        <ele>583.594158</ele>
        <time>2022-08-21T10:39:22.514Z</time>
      </trkpt>
      <trkpt lat="45.73119" lon="3.06129">
        <ele>592.540636</ele>
        <time>2022-08-21T10:40:31.480Z</time>
      </trkpt>
      <trkpt lat="45.73075" lon="3.06117">
        <ele>598.568798</ele>
        <time>2022-08-21T10:41:12.295Z</time>
      </trkpt>
      <trkpt lat="45.73079" lon="3.06093">
        <ele>600.902689</ele>
        <time>2022-08-21T10:41:31.289Z</time>
      </trkpt>
      <trkpt lat="45.73075" lon="3.06076">
        <ele>602.617773</ele>
        <time>2022-08-21T10:41:40.352Z</time>
      </trkpt>
      <trkpt lat="45.7307" lon="3.06066">
        <ele>603.716288</ele>
        <time>2022-08-21T10:41:46.270Z</time>
      </trkpt>
      <trkpt lat="45.73061" lon="3.06064">
        <ele>604.983645</ele>
        <time>2022-08-21T10:41:57.215Z</time>
      </trkpt>
      <trkpt lat="45.73041" lon="3.06067">
        <ele>607.721339</ele>
        <time>2022-08-21T10:42:11.844Z</time>
      </trkpt>
      <trkpt lat="45.72975" lon="3.06108">
        <ele>613.297233</ele>
        <time>2022-08-21T10:43:04.053Z</time>
      </trkpt>
      <trkpt lat="45.72924" lon="3.0612">
        <ele>617.130662</ele>
        <time>2022-08-21T10:43:37.431Z</time>
      </trkpt>
      <trkpt lat="45.72884" lon="3.06122">
        <ele>620.138272</ele>
        <time>2022-08-21T10:43:54.247Z</time>
      </trkpt>
      <trkpt lat="45.72822" lon="3.0617">
        <ele>623.226279</ele>
        <time>2022-08-21T10:44:16.605Z</time>
      </trkpt>
      <trkpt lat="45.72809" lon="3.06175">
        <ele>623.666999</ele>
        <time>2022-08-21T10:44:22.537Z</time>
      </trkpt>
      <trkpt lat="45.72694" lon="3.06182">
        <ele>627.370776</ele>
        <time>2022-08-21T10:45:02.730Z</time>
      </trkpt>
      <trkpt lat="45.72678" lon="3.06176">
        <ele>628.925733</ele>
        <time>2022-08-21T10:45:09.326Z</time>
      </trkpt>
      <trkpt lat="45.72679" lon="3.06166">
        <ele>629.633509</ele>
        <time>2022-08-21T10:45:14.360Z</time>
      </trkpt>
      <trkpt lat="45.72685" lon="3.0616">
        <ele>630.359446</ele>
        <time>2022-08-21T10:45:19.029Z</time>
      </trkpt>
      <trkpt lat="45.72745" lon="3.06154">
        <ele>636.546504</ele>
        <time>2022-08-21T10:45:55.464Z</time>
      </trkpt>
      <trkpt lat="45.72774" lon="3.0614">
        <ele>639.642165</ele>
        <time>2022-08-21T10:46:19.125Z</time>
      </trkpt>
      <trkpt lat="45.72816" lon="3.06104">
        <ele>644.608932</ele>
        <time>2022-08-21T10:47:05.815Z</time>
      </trkpt>
      <trkpt lat="45.72856" lon="3.06053">
        <ele>652.687329</ele>
        <time>2022-08-21T10:48:02.534Z</time>
      </trkpt>
      <trkpt lat="45.72905" lon="3.06028">
        <ele>661.144408</ele>
        <time>2022-08-21T10:49:00.294Z</time>
      </trkpt>
      <trkpt lat="45.72948" lon="3.05987">
        <ele>669.621</ele>
        <time>2022-08-21T10:49:56.189Z</time>
      </trkpt>
      <trkpt lat="45.73011" lon="3.05901">
        <ele>680.803195</ele>
        <time>2022-08-21T10:51:21.692Z</time>
      </trkpt>
      <trkpt lat="45.73004" lon="3.05783">
        <ele>689.556905</ele>
        <time>2022-08-21T10:52:18.900Z</time>
      </trkpt>
      <trkpt lat="45.7301" lon="3.05763">
        <ele>691.106782</ele>
        <time>2022-08-21T10:52:26.348Z</time>
      </trkpt>
      <trkpt lat="45.73022" lon="3.05747">
        <ele>692.915276</ele>
        <time>2022-08-21T10:52:40.153Z</time>
      </trkpt>
      <trkpt lat="45.73039" lon="3.05738">
        <ele>694.566153</ele>
        <time>2022-08-21T10:52:47.696Z</time>
      </trkpt>
      <trkpt lat="45.73086" lon="3.05735">
        <ele>697.298744</ele>
        <time>2022-08-21T10:53:13.615Z</time>
      </trkpt>
      <trkpt lat="45.73118" lon="3.0571">
        <ele>699.425396</ele>
        <time>2022-08-21T10:53:30.898Z</time>
      </trkpt>
      <trkpt lat="45.73139" lon="3.05683">
        <ele>701.109156</ele>
        <time>2022-08-21T10:53:43.904Z</time>
      </trkpt>
      <trkpt lat="45.73154" lon="3.05678">
        <ele>701.976229</ele>
        <time>2022-08-21T10:53:53.591Z</time>
      </trkpt>
      <trkpt lat="45.73198" lon="3.05701">
        <ele>704.731334</ele>
        <time>2022-08-21T10:54:11.716Z</time>
      </trkpt>
      <trkpt lat="45.73221" lon="3.05705">
        <ele>706.836963</ele>
        <time>2022-08-21T10:54:23.769Z</time>
      </trkpt>
      <trkpt lat="45.73258" lon="3.05703">
        <ele>710.222119</ele>
        <time>2022-08-21T10:54:47.325Z</time>
      </trkpt>
      <trkpt lat="45.73273" lon="3.05698">
        <ele>711.685465</ele>
        <time>2022-08-21T10:54:59.336Z</time>
      </trkpt>
      <trkpt lat="45.73317" lon="3.05665">
        <ele>716.236125</ele>
        <time>2022-08-21T10:55:32.138Z</time>
      </trkpt>
      <trkpt lat="45.73412" lon="3.05652">
        <ele>727.314336</ele>
        <time>2022-08-21T10:56:49.403Z</time>
      </trkpt>
      <trkpt lat="45.73448" lon="3.05635">
        <ele>733.152711</ele>
        <time>2022-08-21T10:57:27.195Z</time>
      </trkpt>
      <trkpt lat="45.7346" lon="3.05619">
        <ele>735.645146</ele>
        <time>2022-08-21T10:57:43.049Z</time>
      </trkpt>
      <trkpt lat="45.73482" lon="3.05523">
        <ele>746.293413</ele>
        <time>2022-08-21T10:58:58.372Z</time>
      </trkpt>
      <trkpt lat="45.73482" lon="3.05485">
        <ele>750.354521</ele>
        <time>2022-08-21T10:59:27.942Z</time>
      </trkpt>
      <trkpt lat="45.7348" lon="3.05463">
        <ele>752.885947</ele>
        <time>2022-08-21T10:59:45.402Z</time>
      </trkpt>
      <trkpt lat="45.73457" lon="3.05392">
        <ele>761.571576</ele>
        <time>2022-08-21T11:00:44.708Z</time>
      </trkpt>
      <trkpt lat="45.73413" lon="3.05333">
        <ele>771.250732</ele>
        <time>2022-08-21T11:01:48.105Z</time>
      </trkpt>
      <trkpt lat="45.73405" lon="3.05324">
        <ele>772.809227</ele>
        <time>2022-08-21T11:01:57.527Z</time>
      </trkpt>
      <trkpt lat="45.73388" lon="3.05309">
        <ele>776.01165</ele>
        <time>2022-08-21T11:02:16.921Z</time>
      </trkpt>
      <trkpt lat="45.73248" lon="3.05235">
        <ele>791.927845</ele>
        <time>2022-08-21T11:04:15.624Z</time>
      </trkpt>
      <trkpt lat="45.73213" lon="3.05211">
        <ele>795.974817</ele>
        <time>2022-08-21T11:04:36.309Z</time>
      </trkpt>
      <trkpt lat="45.73178" lon="3.05181">
        <ele>797.760276</ele>
        <time>2022-08-21T11:04:56.498Z</time>
      </trkpt>
      <trkpt lat="45.73122" lon="3.05154">
        <ele>800.309417</ele>
        <time>2022-08-21T11:05:22.853Z</time>
      </trkpt>
      <trkpt lat="45.73092" lon="3.05125">
        <ele>801.897005</ele>
        <time>2022-08-21T11:05:38.606Z</time>
      </trkpt>
      <trkpt lat="45.73017" lon="3.05045">
        <ele>804.430206</ele>
        <time>2022-08-21T11:06:09.447Z</time>
      </trkpt>
      <trkpt lat="45.72992" lon="3.05007">
        <ele>804.907668</ele>
        <time>2022-08-21T11:06:20.120Z</time>
      </trkpt>
      <trkpt lat="45.72975" lon="3.0498">
        <ele>805.233859</ele>
        <time>2022-08-21T11:06:27.223Z</time>
      </trkpt>
      <trkpt lat="45.72954" lon="3.0496">
        <ele>805.569308</ele>
        <time>2022-08-21T11:06:33.831Z</time>
      </trkpt>
      <trkpt lat="45.72913" lon="3.0494">
        <ele>806.133466</ele>
        <time>2022-08-21T11:06:44.774Z</time>
      </trkpt>
      <trkpt lat="45.72887" lon="3.04935">
        <ele>806.215279</ele>
        <time>2022-08-21T11:06:50.651Z</time>
      </trkpt>
      <trkpt lat="45.72863" lon="3.04931">
        <ele>806.292041</ele>
        <time>2022-08-21T11:06:56.294Z</time>
      </trkpt>
      <trkpt lat="45.7284" lon="3.04928">
        <ele>806.364295</ele>
        <time>2022-08-21T11:07:01.429Z</time>
      </trkpt>
      <trkpt lat="45.72815" lon="3.04925">
        <ele>806.443501</ele>
        <time>2022-08-21T11:07:06.859Z</time>
      </trkpt>
      <trkpt lat="45.728" lon="3.04924">
        <ele>806.490504</ele>
        <time>2022-08-21T11:07:10.191Z</time>
      </trkpt>
      <trkpt lat="45.72758" lon="3.04929">
        <ele>806.623402</ele>
        <time>2022-08-21T11:07:19.861Z</time>
      </trkpt>
      <trkpt lat="45.72732" lon="3.04933">
        <ele>806.769993</ele>
        <time>2022-08-21T11:07:26.199Z</time>
      </trkpt>
      <trkpt lat="45.72687" lon="3.04918">
        <ele>808.062235</ele>
        <time>2022-08-21T11:07:39.693Z</time>
      </trkpt>
      <trkpt lat="45.72677" lon="3.04914">
        <ele>808.362655</ele>
        <time>2022-08-21T11:07:42.892Z</time>
      </trkpt>
      <trkpt lat="45.72649" lon="3.04899">
        <ele>809.165605</ele>
        <time>2022-08-21T11:07:52.109Z</time>
      </trkpt>
      <trkpt lat="45.72646" lon="3.04898">
        <ele>809.257893</ele>
        <time>2022-08-21T11:07:53.128Z</time>
      </trkpt>
      <trkpt lat="45.72576" lon="3.04882">
        <ele>811.247331</ele>
        <time>2022-08-21T11:08:20.298Z</time>
      </trkpt>
      <trkpt lat="45.72556" lon="3.04879">
        <ele>811.922912</ele>
        <time>2022-08-21T11:08:31.163Z</time>
      </trkpt>
      <trkpt lat="45.72509" lon="3.04833">
        <ele>816.057543</ele>
        <time>2022-08-21T11:09:01.692Z</time>
      </trkpt>
      <trkpt lat="45.72492" lon="3.04806">
        <ele>817.883246</ele>
        <time>2022-08-21T11:09:18.013Z</time>
      </trkpt>
      <trkpt lat="45.72495" lon="3.04792">
        <ele>818.609735</ele>
        <time>2022-08-21T11:09:23.734Z</time>
      </trkpt>
      <trkpt lat="45.72499" lon="3.04769">
        <ele>819.781574</ele>
        <time>2022-08-21T11:09:35.055Z</time>
      </trkpt>
      <trkpt lat="45.7252" lon="3.04754">
        <ele>821.456658</ele>
        <time>2022-08-21T11:09:48.053Z</time>
      </trkpt>
      <trkpt lat="45.72523" lon="3.04728">
        <ele>822.772458</ele>
        <time>2022-08-21T11:10:01.056Z</time>
      </trkpt>
      <trkpt lat="45.72522" lon="3.04695">
        <ele>824.462545</ele>
        <time>2022-08-21T11:10:15.561Z</time>
      </trkpt>
      <trkpt lat="45.72518" lon="3.04649">
        <ele>826.830862</ele>
        <time>2022-08-21T11:10:36.004Z</time>
      </trkpt>
      <trkpt lat="45.72516" lon="3.04604">
        <ele>829.179209</ele>
        <time>2022-08-21T11:10:56.810Z</time>
      </trkpt>
      <trkpt lat="45.72487" lon="3.04575">
        <ele>831.800082</ele>
        <time>2022-08-21T11:11:20.160Z</time>
      </trkpt>
      <trkpt lat="45.72472" lon="3.04539">
        <ele>833.920877</ele>
        <time>2022-08-21T11:11:38.233Z</time>
      </trkpt>
      <trkpt lat="45.72474" lon="3.04532">
        <ele>834.3172</ele>
        <time>2022-08-21T11:11:41.352Z</time>
      </trkpt>
      <trkpt lat="45.72466" lon="3.04497">
        <ele>836.212152</ele>
        <time>2022-08-21T11:11:54.845Z</time>
      </trkpt>
      <trkpt lat="45.72444" lon="3.04462">
        <ele>838.307074</ele>
        <time>2022-08-21T11:12:12.033Z</time>
      </trkpt>
      <trkpt lat="45.7244" lon="3.04453">
        <ele>838.55398</ele>
        <time>2022-08-21T11:12:15.322Z</time>
      </trkpt>
      <trkpt lat="45.72435" lon="3.04416">
        <ele>839.516695</ele>
        <time>2022-08-21T11:12:27.462Z</time>
      </trkpt>
      <trkpt lat="45.7242" lon="3.04304">
        <ele>842.38862</ele>
        <time>2022-08-21T11:12:59.785Z</time>
      </trkpt>
      <trkpt lat="45.72414" lon="3.04285">
        <ele>842.933472</ele>
        <time>2022-08-21T11:13:05.509Z</time>
      </trkpt>
      <trkpt lat="45.72404" lon="3.04259">
        <ele>843.670929</ele>
        <time>2022-08-21T11:13:11.887Z</time>
      </trkpt>
      <trkpt lat="45.72372" lon="3.04162">
        <ele>845.248613</ele>
        <time>2022-08-21T11:13:34.710Z</time>
      </trkpt>
      <trkpt lat="45.72368" lon="3.0415">
        <ele>845.387602</ele>
        <time>2022-08-21T11:13:37.667Z</time>
      </trkpt>
      <trkpt lat="45.72361" lon="3.04125">
        <ele>845.670735</ele>
        <time>2022-08-21T11:13:42.645Z</time>
      </trkpt>
      <trkpt lat="45.72353" lon="3.04081">
        <ele>846.137323</ele>
        <time>2022-08-21T11:13:51.442Z</time>
      </trkpt>
      <trkpt lat="45.72351" lon="3.04066">
        <ele>846.299879</ele>
        <time>2022-08-21T11:13:54.257Z</time>
      </trkpt>
      <trkpt lat="45.72348" lon="3.04016">
        <ele>846.819635</ele>
        <time>2022-08-21T11:14:03.361Z</time>
      </trkpt>
      <trkpt lat="45.72349" lon="3.03939">
        <ele>848.114761</ele>
        <time>2022-08-21T11:14:20.423Z</time>
      </trkpt>
      <trkpt lat="45.72345" lon="3.03904">
        <ele>848.862088</ele>
        <time>2022-08-21T11:14:29.561Z</time>
      </trkpt>
      <trkpt lat="45.72343" lon="3.03894">
        <ele>849.058465</ele>
        <time>2022-08-21T11:14:31.996Z</time>
      </trkpt>
      <trkpt lat="45.72321" lon="3.03817">
        <ele>850.803588</ele>
        <time>2022-08-21T11:14:55.232Z</time>
      </trkpt>
      <trkpt lat="45.72297" lon="3.03748">
        <ele>852.403441</ele>
        <time>2022-08-21T11:15:17.020Z</time>
      </trkpt>
      <trkpt lat="45.7229" lon="3.03726">
        <ele>852.887565</ele>
        <time>2022-08-21T11:15:24.097Z</time>
      </trkpt>
      <trkpt lat="45.72224" lon="3.0365">
        <ele>855.240094</ele>
        <time>2022-08-21T11:15:56.668Z</time>
      </trkpt>
      <trkpt lat="45.72201" lon="3.03593">
        <ele>856.518945</ele>
        <time>2022-08-21T11:16:12.778Z</time>
      </trkpt>
      <trkpt lat="45.72189" lon="3.03549">
        <ele>857.433406</ele>
        <time>2022-08-21T11:16:23.180Z</time>
      </trkpt>
      <trkpt lat="45.72151" lon="3.03407">
        <ele>859.286464</ele>
        <time>2022-08-21T11:16:54.829Z</time>
      </trkpt>
      <trkpt lat="45.72154" lon="3.03311">
        <ele>860.430834</ele>
        <time>2022-08-21T11:17:15.442Z</time>
      </trkpt>
      <trkpt lat="45.72167" lon="3.03168">
        <ele>862.122807</ele>
        <time>2022-08-21T11:17:47.342Z</time>
      </trkpt>
      <trkpt lat="45.72154" lon="3.03062">
        <ele>863.369452</ele>
        <time>2022-08-21T11:18:09.613Z</time>
      </trkpt>
      <trkpt lat="45.72135" lon="3.02985">
        <ele>864.457827</ele>
        <time>2022-08-21T11:18:26.320Z</time>
      </trkpt>
      <trkpt lat="45.72106" lon="3.02895">
        <ele>865.822206</ele>
        <time>2022-08-21T11:18:47.613Z</time>
      </trkpt>
      <trkpt lat="45.72104" lon="3.02863">
        <ele>866.265734</ele>
        <time>2022-08-21T11:18:55.140Z</time>
      </trkpt>
      <trkpt lat="45.72122" lon="3.02762">
        <ele>867.836747</ele>
        <time>2022-08-21T11:19:21.319Z</time>
      </trkpt>
      <trkpt lat="45.72172" lon="3.02574">
        <ele>871.281614</ele>
        <time>2022-08-21T11:20:10.819Z</time>
      </trkpt>
      <trkpt lat="45.72176" lon="3.02545">
        <ele>871.575856</ele>
        <time>2022-08-21T11:20:17.722Z</time>
      </trkpt>
      <trkpt lat="45.72164" lon="3.02465">
        <ele>871.657372</ele>
        <time>2022-08-21T11:20:34.695Z</time>
      </trkpt>
      <trkpt lat="45.72132" lon="3.02322">
        <ele>871.805152</ele>
        <time>2022-08-21T11:20:56.013Z</time>
      </trkpt>
      <trkpt lat="45.72127" lon="3.02295">
        <ele>871.697176</ele>
        <time>2022-08-21T11:20:59.706Z</time>
      </trkpt>
      <trkpt lat="45.72131" lon="3.02261">
        <ele>871.418111</ele>
        <time>2022-08-21T11:21:04.205Z</time>
      </trkpt>
      <trkpt lat="45.72145" lon="3.02216">
        <ele>871.0112</ele>
        <time>2022-08-21T11:21:10.890Z</time>
      </trkpt>
      <trkpt lat="45.72148" lon="3.02125">
        <ele>870.274798</ele>
        <time>2022-08-21T11:21:22.995Z</time>
      </trkpt>
      <trkpt lat="45.7217" lon="3.02058">
        <ele>869.759121</ele>
        <time>2022-08-21T11:21:33.140Z</time>
      </trkpt>
      <trkpt lat="45.7217" lon="3.02032">
        <ele>869.88312</ele>
        <time>2022-08-21T11:21:36.940Z</time>
      </trkpt>
      <trkpt lat="45.72158" lon="3.01952">
        <ele>870.264273</ele>
        <time>2022-08-21T11:21:51.433Z</time>
      </trkpt>
      <trkpt lat="45.72168" lon="3.01878">
        <ele>870.616873</ele>
        <time>2022-08-21T11:22:06.702Z</time>
      </trkpt>
      <trkpt lat="45.72174" lon="3.01833">
        <ele>870.832251</ele>
        <time>2022-08-21T11:22:15.925Z</time>
      </trkpt>
      <trkpt lat="45.72132" lon="3.01826">
        <ele>871.030315</ele>
        <time>2022-08-21T11:22:28.225Z</time>
      </trkpt>
      <trkpt lat="45.7211" lon="3.01825">
        <ele>871.105356</ele>
        <time>2022-08-21T11:22:34.272Z</time>
      </trkpt>
      <trkpt lat="45.72094" lon="3.01832">
        <ele>871.162964</ele>
        <time>2022-08-21T11:22:38.689Z</time>
      </trkpt>
      <trkpt lat="45.72066" lon="3.01945">
        <ele>871.448071</ele>
        <time>2022-08-21T11:22:58.382Z</time>
      </trkpt>
      <trkpt lat="45.72061" lon="3.01951">
        <ele>871.469373</ele>
        <time>2022-08-21T11:22:59.859Z</time>
      </trkpt>
      <trkpt lat="45.72045" lon="3.01967">
        <ele>871.537557</ele>
        <time>2022-08-21T11:23:04.071Z</time>
      </trkpt>
      <trkpt lat="45.72019" lon="3.01973">
        <ele>871.154804</ele>
        <time>2022-08-21T11:23:09.463Z</time>
      </trkpt>
      <trkpt lat="45.71979" lon="3.01965">
        <ele>870.422741</ele>
        <time>2022-08-21T11:23:17.140Z</time>
      </trkpt>
      <trkpt lat="45.71891" lon="3.01912">
        <ele>868.708612</ele>
        <time>2022-08-21T11:23:34.140Z</time>
      </trkpt>
      <trkpt lat="45.7188" lon="3.01899">
        <ele>868.445376</ele>
        <time>2022-08-21T11:23:36.837Z</time>
      </trkpt>
      <trkpt lat="45.71866" lon="3.01902">
        <ele>868.168424</ele>
        <time>2022-08-21T11:23:39.263Z</time>
      </trkpt>
      <trkpt lat="45.71844" lon="3.01898">
        <ele>867.65938</ele>
        <time>2022-08-21T11:23:43.397Z</time>
      </trkpt>
      <trkpt lat="45.71811" lon="3.01889">
        <ele>866.900479</ele>
        <time>2022-08-21T11:23:49.502Z</time>
      </trkpt>
      <trkpt lat="45.71753" lon="3.01875">
        <ele>865.544919</ele>
        <time>2022-08-21T11:24:00.270Z</time>
      </trkpt>
      <trkpt lat="45.71735" lon="3.0187">
        <ele>865.122308</ele>
        <time>2022-08-21T11:24:03.665Z</time>
      </trkpt>
      <trkpt lat="45.7163" lon="3.01844">
        <ele>862.031105</ele>
        <time>2022-08-21T11:24:22.204Z</time>
      </trkpt>
      <trkpt lat="45.71365" lon="3.01779">
        <ele>852.558153</ele>
        <time>2022-08-21T11:25:07.232Z</time>
      </trkpt>
      <trkpt lat="45.71287" lon="3.01728">
        <ele>848.382994</ele>
        <time>2022-08-21T11:25:21.382Z</time>
      </trkpt>
      <trkpt lat="45.71211" lon="3.01676">
        <ele>843.871503</ele>
        <time>2022-08-21T11:25:34.586Z</time>
      </trkpt>
      <trkpt lat="45.71202" lon="3.01669">
        <ele>843.308229</ele>
        <time>2022-08-21T11:25:36.183Z</time>
      </trkpt>
      <trkpt lat="45.70998" lon="3.01527">
        <ele>828.493928</ele>
        <time>2022-08-21T11:26:09.891Z</time>
      </trkpt>
      <trkpt lat="45.7097" lon="3.0149">
        <ele>827.255307</ele>
        <time>2022-08-21T11:26:15.882Z</time>
      </trkpt>
      <trkpt lat="45.70893" lon="3.01321">
        <ele>823.481633</ele>
        <time>2022-08-21T11:26:42.141Z</time>
      </trkpt>
      <trkpt lat="45.70905" lon="3.01292">
        <ele>823.593673</ele>
        <time>2022-08-21T11:26:48.115Z</time>
      </trkpt>
      <trkpt lat="45.70907" lon="3.01272">
        <ele>823.662646</ele>
        <time>2022-08-21T11:26:51.386Z</time>
      </trkpt>
      <trkpt lat="45.70906" lon="3.01233">
        <ele>823.791773</ele>
        <time>2022-08-21T11:26:58.446Z</time>
      </trkpt>
      <trkpt lat="45.70894" lon="3.01187">
        <ele>823.956174</ele>
        <time>2022-08-21T11:27:07.733Z</time>
      </trkpt>
      <trkpt lat="45.70804" lon="3.01057">
        <ele>825.264619</ele>
        <time>2022-08-21T11:27:45.529Z</time>
      </trkpt>
      <trkpt lat="45.70757" lon="3.00971">
        <ele>826.381546</ele>
        <time>2022-08-21T11:28:07.633Z</time>
      </trkpt>
      <trkpt lat="45.70685" lon="3.00867">
        <ele>827.901992</ele>
        <time>2022-08-21T11:28:38.892Z</time>
      </trkpt>
      <trkpt lat="45.70648" lon="3.0082">
        <ele>828.64535</ele>
        <time>2022-08-21T11:28:53.296Z</time>
      </trkpt>
      <trkpt lat="45.70621" lon="3.00803">
        <ele>829.083445</ele>
        <time>2022-08-21T11:29:01.677Z</time>
      </trkpt>
      <trkpt lat="45.70476" lon="3.00729">
        <ele>831.565256</ele>
        <time>2022-08-21T11:29:48.175Z</time>
      </trkpt>
      <trkpt lat="45.70475" lon="3.00709">
        <ele>831.787124</ele>
        <time>2022-08-21T11:29:52.353Z</time>
      </trkpt>
      <trkpt lat="45.70462" lon="3.0064">
        <ele>832.638296</ele>
        <time>2022-08-21T11:30:07.601Z</time>
      </trkpt>
      <trkpt lat="45.7045" lon="3.00607">
        <ele>833.251346</ele>
        <time>2022-08-21T11:30:15.913Z</time>
      </trkpt>
      <trkpt lat="45.70428" lon="3.0055">
        <ele>834.329703</ele>
        <time>2022-08-21T11:30:31.098Z</time>
      </trkpt>
      <trkpt lat="45.70421" lon="3.00531">
        <ele>834.692985</ele>
        <time>2022-08-21T11:30:36.532Z</time>
      </trkpt>
      <trkpt lat="45.70408" lon="3.00495">
        <ele>835.349765</ele>
        <time>2022-08-21T11:30:46.907Z</time>
      </trkpt>
      <trkpt lat="45.70373" lon="3.00394">
        <ele>837.313448</ele>
        <time>2022-08-21T11:31:14.948Z</time>
      </trkpt>
      <trkpt lat="45.70339" lon="3.00325">
        <ele>839.048627</ele>
        <time>2022-08-21T11:31:37.081Z</time>
      </trkpt>
      <trkpt lat="45.70318" lon="3.00336">
        <ele>839.69677</ele>
        <time>2022-08-21T11:31:45.163Z</time>
      </trkpt>
      <trkpt lat="45.70312" lon="3.00331">
        <ele>839.906555</ele>
        <time>2022-08-21T11:31:47.988Z</time>
      </trkpt>
      <trkpt lat="45.7031" lon="3.0033">
        <ele>839.978524</ele>
        <time>2022-08-21T11:31:48.920Z</time>
      </trkpt>
      <trkpt lat="45.70284" lon="3.00327">
        <ele>840.739314</ele>
        <time>2022-08-21T11:31:58.445Z</time>
      </trkpt>
      <trkpt lat="45.70259" lon="3.00301">
        <ele>841.627545</ele>
        <time>2022-08-21T11:32:09.483Z</time>
      </trkpt>
      <trkpt lat="45.70255" lon="3.00285">
        <ele>841.96727</ele>
        <time>2022-08-21T11:32:13.998Z</time>
      </trkpt>
      <trkpt lat="45.70167" lon="3.00245">
        <ele>846.764347</ele>
        <time>2022-08-21T11:32:54.497Z</time>
      </trkpt>
      <trkpt lat="45.70152" lon="3.00231">
        <ele>847.727757</ele>
        <time>2022-08-21T11:33:03.871Z</time>
      </trkpt>
      <trkpt lat="45.7012" lon="3.00197">
        <ele>849.798145</ele>
        <time>2022-08-21T11:33:26.117Z</time>
      </trkpt>
      <trkpt lat="45.70075" lon="3.00147">
        <ele>853.763147</ele>
        <time>2022-08-21T11:33:58.241Z</time>
      </trkpt>
      <trkpt lat="45.70052" lon="3.00118">
        <ele>856.585733</ele>
        <time>2022-08-21T11:34:17.168Z</time>
      </trkpt>
      <trkpt lat="45.70027" lon="3.00063">
        <ele>860.842494</ele>
        <time>2022-08-21T11:34:52.136Z</time>
      </trkpt>
      <trkpt lat="45.70014" lon="3.00053">
        <ele>862.223038</ele>
        <time>2022-08-21T11:35:04.094Z</time>
      </trkpt>
      <trkpt lat="45.7" lon="3.00059">
        <ele>863.525329</ele>
        <time>2022-08-21T11:35:13.449Z</time>
      </trkpt>
      <trkpt lat="45.69964" lon="3.00122">
        <ele>868.761716</ele>
        <time>2022-08-21T11:35:56.674Z</time>
      </trkpt>
      <trkpt lat="45.69949" lon="3.0013">
        <ele>870.188425</ele>
        <time>2022-08-21T11:36:06.656Z</time>
      </trkpt>
      <trkpt lat="45.69935" lon="3.00132">
        <ele>871.524805</ele>
        <time>2022-08-21T11:36:19.203Z</time>
      </trkpt>
      <trkpt lat="45.69899" lon="3.00117">
        <ele>874.86358</ele>
        <time>2022-08-21T11:36:44.778Z</time>
      </trkpt>
      <trkpt lat="45.69864" lon="3.00117">
        <ele>878.030315</ele>
        <time>2022-08-21T11:37:07.817Z</time>
      </trkpt>
      <trkpt lat="45.69804" lon="3.00074">
        <ele>884.130911</ele>
        <time>2022-08-21T11:37:53.531Z</time>
      </trkpt>
      <trkpt lat="45.69726" lon="2.9999">
        <ele>891.623877</ele>
        <time>2022-08-21T11:38:52.417Z</time>
      </trkpt>
      <trkpt lat="45.69654" lon="2.99929">
        <ele>897.998445</ele>
        <time>2022-08-21T11:39:44.297Z</time>
      </trkpt>
      <trkpt lat="45.6962" lon="2.99889">
        <ele>900.484761</ele>
        <time>2022-08-21T11:40:11.043Z</time>
      </trkpt>
      <trkpt lat="45.69535" lon="2.99764">
        <ele>907.219433</ele>
        <time>2022-08-21T11:41:12.105Z</time>
      </trkpt>
      <trkpt lat="45.69531" lon="2.99733">
        <ele>908.179137</ele>
        <time>2022-08-21T11:41:21.103Z</time>
      </trkpt>
      <trkpt lat="45.69538" lon="2.997">
        <ele>908.553515</ele>
        <time>2022-08-21T11:41:29.421Z</time>
      </trkpt>
      <trkpt lat="45.69537" lon="2.9965">
        <ele>909.100592</ele>
        <time>2022-08-21T11:41:41.126Z</time>
      </trkpt>
      <trkpt lat="45.69527" lon="2.99626">
        <ele>909.397414</ele>
        <time>2022-08-21T11:41:47.282Z</time>
      </trkpt>
      <trkpt lat="45.69517" lon="2.99612">
        <ele>909.617837</ele>
        <time>2022-08-21T11:41:52.065Z</time>
      </trkpt>
      <trkpt lat="45.695" lon="2.99595">
        <ele>909.938433</ele>
        <time>2022-08-21T11:41:58.815Z</time>
      </trkpt>
      <trkpt lat="45.69484" lon="2.99589">
        <ele>910.193023</ele>
        <time>2022-08-21T11:42:04.429Z</time>
      </trkpt>
      <trkpt lat="45.69482" lon="2.99613">
        <ele>910.460122</ele>
        <time>2022-08-21T11:42:08.608Z</time>
      </trkpt>
      <trkpt lat="45.69464" lon="2.99613">
        <ele>910.736425</ele>
        <time>2022-08-21T11:42:12.836Z</time>
      </trkpt>
      <trkpt lat="45.69446" lon="2.99626">
        <ele>910.426532</ele>
        <time>2022-08-21T11:42:16.600Z</time>
      </trkpt>
      <trkpt lat="45.69413" lon="2.99674">
        <ele>908.62115</ele>
        <time>2022-08-21T11:42:25.036Z</time>
      </trkpt>
      <trkpt lat="45.69399" lon="2.99693">
        <ele>907.879989</ele>
        <time>2022-08-21T11:42:28.424Z</time>
      </trkpt>
      <trkpt lat="45.6939" lon="2.99691">
        <ele>907.52099</ele>
        <time>2022-08-21T11:42:29.967Z</time>
      </trkpt>
      <trkpt lat="45.69384" lon="2.99706">
        <ele>907.053973</ele>
        <time>2022-08-21T11:42:32.059Z</time>
      </trkpt>
      <trkpt lat="45.69357" lon="2.99711">
        <ele>906.005652</ele>
        <time>2022-08-21T11:42:36.395Z</time>
      </trkpt>
      <trkpt lat="45.69345" lon="2.99713">
        <ele>905.571447</ele>
        <time>2022-08-21T11:42:38.210Z</time>
      </trkpt>
      <trkpt lat="45.69287" lon="2.9973">
        <ele>902.42883</ele>
        <time>2022-08-21T11:42:47.364Z</time>
      </trkpt>
      <trkpt lat="45.69262" lon="2.99747">
        <ele>900.084066</ele>
        <time>2022-08-21T11:42:51.552Z</time>
      </trkpt>
      <trkpt lat="45.6921" lon="2.99802">
        <ele>894.651406</ele>
        <time>2022-08-21T11:43:00.697Z</time>
      </trkpt>
      <trkpt lat="45.69206" lon="2.99808">
        <ele>894.147911</ele>
        <time>2022-08-21T11:43:01.547Z</time>
      </trkpt>
      <trkpt lat="45.69215" lon="2.99764">
        <ele>891.425588</ele>
        <time>2022-08-21T11:43:06.145Z</time>
      </trkpt>
      <trkpt lat="45.69233" lon="2.99712">
        <ele>888.086707</ele>
        <time>2022-08-21T11:43:12.075Z</time>
      </trkpt>
      <trkpt lat="45.69202" lon="2.9968">
        <ele>885.231042</ele>
        <time>2022-08-21T11:43:19.739Z</time>
      </trkpt>
      <trkpt lat="45.69145" lon="2.99745">
        <ele>879.814424</ele>
        <time>2022-08-21T11:43:31.075Z</time>
      </trkpt>
      <trkpt lat="45.69093" lon="2.99779">
        <ele>875.621402</ele>
        <time>2022-08-21T11:43:39.970Z</time>
      </trkpt>
      <trkpt lat="45.69023" lon="2.99818">
        <ele>872.78324</ele>
        <time>2022-08-21T11:43:52.539Z</time>
      </trkpt>
      <trkpt lat="45.68969" lon="2.99847">
        <ele>870.689154</ele>
        <time>2022-08-21T11:44:02.869Z</time>
      </trkpt>
      <trkpt lat="45.68908" lon="2.99856">
        <ele>868.926478</ele>
        <time>2022-08-21T11:44:14.890Z</time>
      </trkpt>
      <trkpt lat="45.68889" lon="2.99867">
        <ele>868.956672</ele>
        <time>2022-08-21T11:44:19.021Z</time>
      </trkpt>
      <trkpt lat="45.68822" lon="2.99939">
        <ele>869.084475</ele>
        <time>2022-08-21T11:44:38.571Z</time>
      </trkpt>
      <trkpt lat="45.68799" lon="2.99953">
        <ele>869.123291</ele>
        <time>2022-08-21T11:44:45.574Z</time>
      </trkpt>
      <trkpt lat="45.68764" lon="2.99973">
        <ele>869.180558</ele>
        <time>2022-08-21T11:44:56.838Z</time>
      </trkpt>
      <trkpt lat="45.68742" lon="2.99984">
        <ele>869.829971</ele>
        <time>2022-08-21T11:45:04.185Z</time>
      </trkpt>
      <trkpt lat="45.68711" lon="2.99994">
        <ele>870.719147</ele>
        <time>2022-08-21T11:45:14.834Z</time>
      </trkpt>
      <trkpt lat="45.68673" lon="2.99996">
        <ele>871.796006</ele>
        <time>2022-08-21T11:45:28.456Z</time>
      </trkpt>
      <trkpt lat="45.68585" lon="2.99949">
        <ele>874.5036</ele>
        <time>2022-08-21T11:46:07.357Z</time>
      </trkpt>
      <trkpt lat="45.68423" lon="2.99904">
        <ele>880.326784</ele>
        <time>2022-08-21T11:47:17.177Z</time>
      </trkpt>
      <trkpt lat="45.68372" lon="2.99887">
        <ele>880.917099</ele>
        <time>2022-08-21T11:47:35.860Z</time>
      </trkpt>
      <trkpt lat="45.68344" lon="2.99886">
        <ele>881.093095</ele>
        <time>2022-08-21T11:47:43.719Z</time>
      </trkpt>
      <trkpt lat="45.68275" lon="2.99897">
        <ele>881.52789</ele>
        <time>2022-08-21T11:47:59.707Z</time>
      </trkpt>
      <trkpt lat="45.68229" lon="2.99898">
        <ele>881.648491</ele>
        <time>2022-08-21T11:48:09.348Z</time>
      </trkpt>
      <trkpt lat="45.68209" lon="2.99864">
        <ele>881.151666</ele>
        <time>2022-08-21T11:48:15.297Z</time>
      </trkpt>
      <trkpt lat="45.68203" lon="2.99853">
        <ele>880.995734</ele>
        <time>2022-08-21T11:48:17.294Z</time>
      </trkpt>
      <trkpt lat="45.68165" lon="2.99783">
        <ele>880.006169</ele>
        <time>2022-08-21T11:48:28.772Z</time>
      </trkpt>
      <trkpt lat="45.68127" lon="2.99733">
        <ele>879.169417</ele>
        <time>2022-08-21T11:48:38.341Z</time>
      </trkpt>
      <trkpt lat="45.67969" lon="2.9959">
        <ele>875.202289</ele>
        <time>2022-08-21T11:49:12.279Z</time>
      </trkpt>
      <trkpt lat="45.67909" lon="2.99548">
        <ele>873.730171</ele>
        <time>2022-08-21T11:49:24.076Z</time>
      </trkpt>
      <trkpt lat="45.67785" lon="2.99486">
        <ele>870.800628</ele>
        <time>2022-08-21T11:49:48.072Z</time>
      </trkpt>
      <trkpt lat="45.67762" lon="2.99484">
        <ele>870.264715</ele>
        <time>2022-08-21T11:49:52.281Z</time>
      </trkpt>
      <trkpt lat="45.67653" lon="2.99501">
        <ele>867.689449</ele>
        <time>2022-08-21T11:50:11.934Z</time>
      </trkpt>
      <trkpt lat="45.67627" lon="2.99495">
        <ele>867.059025</ele>
        <time>2022-08-21T11:50:16.633Z</time>
      </trkpt>
      <trkpt lat="45.67593" lon="2.99473">
        <ele>866.182001</ele>
        <time>2022-08-21T11:50:23.021Z</time>
      </trkpt>
      <trkpt lat="45.67457" lon="2.99354">
        <ele>862.442</ele>
        <time>2022-08-21T11:50:50.953Z</time>
      </trkpt>
      <trkpt lat="45.67415" lon="2.99313">
        <ele>862.746817</ele>
        <time>2022-08-21T11:51:03.102Z</time>
      </trkpt>
      <trkpt lat="45.67395" lon="2.99285">
        <ele>862.912127</ele>
        <time>2022-08-21T11:51:09.484Z</time>
      </trkpt>
      <trkpt lat="45.67392" lon="2.99271">
        <ele>862.973783</ele>
        <time>2022-08-21T11:51:13.270Z</time>
      </trkpt>
      <trkpt lat="45.67384" lon="2.99262">
        <ele>863.032979</ele>
        <time>2022-08-21T11:51:15.613Z</time>
      </trkpt>
      <trkpt lat="45.67374" lon="2.9926">
        <ele>863.09151</ele>
        <time>2022-08-21T11:51:18.047Z</time>
      </trkpt>
      <trkpt lat="45.67369" lon="2.99263">
        <ele>863.123932</ele>
        <time>2022-08-21T11:51:19.725Z</time>
      </trkpt>
      <trkpt lat="45.6736" lon="2.99262">
        <ele>863.179175</ele>
        <time>2022-08-21T11:51:23.588Z</time>
      </trkpt>
      <trkpt lat="45.67295" lon="2.99217">
        <ele>863.514126</ele>
        <time>2022-08-21T11:51:45.854Z</time>
      </trkpt>
      <trkpt lat="45.67208" lon="2.99139">
        <ele>863.617877</ele>
        <time>2022-08-21T11:52:12.474Z</time>
      </trkpt>
      <trkpt lat="45.67168" lon="2.99099">
        <ele>863.667105</ele>
        <time>2022-08-21T11:52:22.104Z</time>
      </trkpt>
      <trkpt lat="45.67078" lon="2.98989">
        <ele>860.148796</ele>
        <time>2022-08-21T11:52:43.335Z</time>
      </trkpt>
      <trkpt lat="45.6706" lon="2.98984">
        <ele>859.553276</ele>
        <time>2022-08-21T11:52:46.326Z</time>
      </trkpt>
      <trkpt lat="45.67021" lon="2.99003">
        <ele>858.223296</ele>
        <time>2022-08-21T11:52:52.904Z</time>
      </trkpt>
      <trkpt lat="45.66993" lon="2.99005">
        <ele>857.124171</ele>
        <time>2022-08-21T11:52:57.364Z</time>
      </trkpt>
      <trkpt lat="45.66979" lon="2.98994">
        <ele>856.423883</ele>
        <time>2022-08-21T11:52:59.878Z</time>
      </trkpt>
      <trkpt lat="45.66969" lon="2.98974">
        <ele>855.698485</ele>
        <time>2022-08-21T11:53:02.419Z</time>
      </trkpt>
      <trkpt lat="45.66966" lon="2.98947">
        <ele>854.856411</ele>
        <time>2022-08-21T11:53:05.452Z</time>
      </trkpt>
      <trkpt lat="45.66969" lon="2.98929">
        <ele>854.30631</ele>
        <time>2022-08-21T11:53:07.437Z</time>
      </trkpt>
      <trkpt lat="45.66978" lon="2.98912">
        <ele>853.634844</ele>
        <time>2022-08-21T11:53:09.951Z</time>
      </trkpt>
      <trkpt lat="45.66993" lon="2.9889">
        <ele>852.717669</ele>
        <time>2022-08-21T11:53:13.372Z</time>
      </trkpt>
      <trkpt lat="45.67007" lon="2.98848">
        <ele>851.321685</ele>
        <time>2022-08-21T11:53:18.801Z</time>
      </trkpt>
      <trkpt lat="45.67002" lon="2.98785">
        <ele>850.194864</ele>
        <time>2022-08-21T11:53:26.615Z</time>
      </trkpt>
      <trkpt lat="45.6701" lon="2.98775">
        <ele>850.290683</ele>
        <time>2022-08-21T11:53:28.614Z</time>
      </trkpt>
      <trkpt lat="45.6701" lon="2.98759">
        <ele>850.39019</ele>
        <time>2022-08-21T11:53:30.582Z</time>
      </trkpt>
      <trkpt lat="45.67004" lon="2.98721">
        <ele>850.63922</ele>
        <time>2022-08-21T11:53:36.105Z</time>
      </trkpt>
      <trkpt lat="45.66992" lon="2.98687">
        <ele>850.879823</ele>
        <time>2022-08-21T11:53:42.034Z</time>
      </trkpt>
      <trkpt lat="45.66996" lon="2.98613">
        <ele>851.357027</ele>
        <time>2022-08-21T11:54:00.644Z</time>
      </trkpt>
      <trkpt lat="45.66988" lon="2.98561">
        <ele>851.695983</ele>
        <time>2022-08-21T11:54:17.199Z</time>
      </trkpt>
      <trkpt lat="45.66974" lon="2.98522">
        <ele>852.127807</ele>
        <time>2022-08-21T11:54:32.680Z</time>
      </trkpt>
      <trkpt lat="45.66942" lon="2.98476">
        <ele>852.774092</ele>
        <time>2022-08-21T11:54:45.542Z</time>
      </trkpt>
      <trkpt lat="45.66931" lon="2.98452">
        <ele>853.053559</ele>
        <time>2022-08-21T11:54:52.415Z</time>
      </trkpt>
      <trkpt lat="45.66912" lon="2.98454">
        <ele>853.321304</ele>
        <time>2022-08-21T11:54:56.276Z</time>
      </trkpt>
      <trkpt lat="45.66871" lon="2.98387">
        <ele>854.200414</ele>
        <time>2022-08-21T11:55:11.365Z</time>
      </trkpt>
      <trkpt lat="45.66854" lon="2.98391">
        <ele>853.962146</ele>
        <time>2022-08-21T11:55:15.028Z</time>
      </trkpt>
      <trkpt lat="45.66833" lon="2.98388">
        <ele>853.532197</ele>
        <time>2022-08-21T11:55:19.777Z</time>
      </trkpt>
      <trkpt lat="45.66795" lon="2.98358">
        <ele>852.691105</ele>
        <time>2022-08-21T11:55:28.865Z</time>
      </trkpt>
      <trkpt lat="45.66776" lon="2.98334">
        <ele>852.198232</ele>
        <time>2022-08-21T11:55:33.497Z</time>
      </trkpt>
      <trkpt lat="45.66756" lon="2.98289">
        <ele>851.461134</ele>
        <time>2022-08-21T11:55:40.147Z</time>
      </trkpt>
      <trkpt lat="45.66749" lon="2.98221">
        <ele>850.420398</ele>
        <time>2022-08-21T11:55:48.610Z</time>
      </trkpt>
      <trkpt lat="45.66736" lon="2.98217">
        <ele>850.019921</ele>
        <time>2022-08-21T11:55:51.131Z</time>
      </trkpt>
      <trkpt lat="45.66724" lon="2.98204">
        <ele>849.579173</ele>
        <time>2022-08-21T11:55:53.768Z</time>
      </trkpt>
      <trkpt lat="45.66706" lon="2.98202">
        <ele>849.049058</ele>
        <time>2022-08-21T11:55:56.928Z</time>
      </trkpt>
      <trkpt lat="45.66686" lon="2.98211">
        <ele>848.414828</ele>
        <time>2022-08-21T11:56:00.746Z</time>
      </trkpt>
      <trkpt lat="45.66662" lon="2.98217">
        <ele>847.7147</ele>
        <time>2022-08-21T11:56:04.893Z</time>
      </trkpt>
      <trkpt lat="45.6662" lon="2.98211">
        <ele>846.438863</ele>
        <time>2022-08-21T11:56:12.442Z</time>
      </trkpt>
      <trkpt lat="45.66589" lon="2.98225">
        <ele>845.493491</ele>
        <time>2022-08-21T11:56:17.800Z</time>
      </trkpt>
      <trkpt lat="45.66583" lon="2.98227">
        <ele>845.304952</ele>
        <time>2022-08-21T11:56:18.893Z</time>
      </trkpt>
      <trkpt lat="45.66572" lon="2.98222">
        <ele>845.013561</ele>
        <time>2022-08-21T11:56:20.696Z</time>
      </trkpt>
      <trkpt lat="45.66564" lon="2.98213">
        <ele>844.738502</ele>
        <time>2022-08-21T11:56:22.439Z</time>
      </trkpt>
      <trkpt lat="45.66555" lon="2.98202">
        <ele>844.431194</ele>
        <time>2022-08-21T11:56:24.396Z</time>
      </trkpt>
      <trkpt lat="45.66521" lon="2.98141">
        <ele>842.9758</ele>
        <time>2022-08-21T11:56:33.866Z</time>
      </trkpt>
      <trkpt lat="45.66495" lon="2.98107">
        <ele>842.04682</ele>
        <time>2022-08-21T11:56:40.043Z</time>
      </trkpt>
      <trkpt lat="45.66435" lon="2.98038">
        <ele>840.399753</ele>
        <time>2022-08-21T11:56:54.350Z</time>
      </trkpt>
      <trkpt lat="45.66406" lon="2.98029">
        <ele>840.137069</ele>
        <time>2022-08-21T11:57:00.638Z</time>
      </trkpt>
      <trkpt lat="45.66385" lon="2.98012">
        <ele>839.914634</ele>
        <time>2022-08-21T11:57:06.110Z</time>
      </trkpt>
      <trkpt lat="45.66382" lon="2.98004">
        <ele>839.857244</ele>
        <time>2022-08-21T11:57:07.516Z</time>
      </trkpt>
      <trkpt lat="45.66341" lon="2.97989">
        <ele>839.473648</ele>
        <time>2022-08-21T11:57:16.156Z</time>
      </trkpt>
      <trkpt lat="45.66316" lon="2.97966">
        <ele>839.209526</ele>
        <time>2022-08-21T11:57:22.352Z</time>
      </trkpt>
      <trkpt lat="45.66286" lon="2.97918">
        <ele>839.100101</ele>
        <time>2022-08-21T11:57:32.055Z</time>
      </trkpt>
      <trkpt lat="45.66275" lon="2.979">
        <ele>839.205066</ele>
        <time>2022-08-21T11:57:36.176Z</time>
      </trkpt>
      <trkpt lat="45.66271" lon="2.97893">
        <ele>839.243066</ele>
        <time>2022-08-21T11:57:37.620Z</time>
      </trkpt>
      <trkpt lat="45.66225" lon="2.97827">
        <ele>839.642266</ele>
        <time>2022-08-21T11:57:54.153Z</time>
      </trkpt>
      <trkpt lat="45.66184" lon="2.9777">
        <ele>839.993588</ele>
        <time>2022-08-21T11:58:09.600Z</time>
      </trkpt>
      <trkpt lat="45.66157" lon="2.97719">
        <ele>841.053519</ele>
        <time>2022-08-21T11:58:21.797Z</time>
      </trkpt>
      <trkpt lat="45.66145" lon="2.97659">
        <ele>842.499949</ele>
        <time>2022-08-21T11:58:35.423Z</time>
      </trkpt>
      <trkpt lat="45.6613" lon="2.97565">
        <ele>844.680775</ele>
        <time>2022-08-21T11:58:59.968Z</time>
      </trkpt>
      <trkpt lat="45.66124" lon="2.97551">
        <ele>845.070431</ele>
        <time>2022-08-21T11:59:05.229Z</time>
      </trkpt>
      <trkpt lat="45.66107" lon="2.97499">
        <ele>847.002874</ele>
        <time>2022-08-21T11:59:27.244Z</time>
      </trkpt>
      <trkpt lat="45.66103" lon="2.9747">
        <ele>848.67223</ele>
        <time>2022-08-21T11:59:41.401Z</time>
      </trkpt>
      <trkpt lat="45.66101" lon="2.97461">
        <ele>849.180179</ele>
        <time>2022-08-21T11:59:44.840Z</time>
      </trkpt>
      <trkpt lat="45.66091" lon="2.97449">
        <ele>850.318178</ele>
        <time>2022-08-21T11:59:53.105Z</time>
      </trkpt>
      <trkpt lat="45.66077" lon="2.97443">
        <ele>851.451493</ele>
        <time>2022-08-21T12:00:03.134Z</time>
      </trkpt>
      <trkpt lat="45.66062" lon="2.97442">
        <ele>852.694316</ele>
        <time>2022-08-21T12:00:11.723Z</time>
      </trkpt>
      <trkpt lat="45.6605" lon="2.97446">
        <ele>853.647331</ele>
        <time>2022-08-21T12:00:19.247Z</time>
      </trkpt>
      <trkpt lat="45.66037" lon="2.97457">
        <ele>854.919286</ele>
        <time>2022-08-21T12:00:30.442Z</time>
      </trkpt>
      <trkpt lat="45.66023" lon="2.9746">
        <ele>856.032462</ele>
        <time>2022-08-21T12:00:38.948Z</time>
      </trkpt>
      <trkpt lat="45.66007" lon="2.97457">
        <ele>857.390049</ele>
        <time>2022-08-21T12:00:51.636Z</time>
      </trkpt>
      <trkpt lat="45.65981" lon="2.97443">
        <ele>859.584074</ele>
        <time>2022-08-21T12:01:08.959Z</time>
      </trkpt>
      <trkpt lat="45.65975" lon="2.97449">
        <ele>860.180074</ele>
        <time>2022-08-21T12:01:15.103Z</time>
      </trkpt>
      <trkpt lat="45.65973" lon="2.97477">
        <ele>861.447142</ele>
        <time>2022-08-21T12:01:27.235Z</time>
      </trkpt>
      <trkpt lat="45.65954" lon="2.97526">
        <ele>863.735389</ele>
        <time>2022-08-21T12:01:51.943Z</time>
      </trkpt>
      <trkpt lat="45.65951" lon="2.97563">
        <ele>865.272839</ele>
        <time>2022-08-21T12:02:08.411Z</time>
      </trkpt>
      <trkpt lat="45.65955" lon="2.97699">
        <ele>870.912384</ele>
        <time>2022-08-21T12:02:51.102Z</time>
      </trkpt>
      <trkpt lat="45.65979" lon="2.97826">
        <ele>872.824245</ele>
        <time>2022-08-21T12:03:19.136Z</time>
      </trkpt>
      <trkpt lat="45.65982" lon="2.97899">
        <ele>873.777208</ele>
        <time>2022-08-21T12:03:34.284Z</time>
      </trkpt>
      <trkpt lat="45.65989" lon="2.97933">
        <ele>874.238825</ele>
        <time>2022-08-21T12:03:41.102Z</time>
      </trkpt>
      <trkpt lat="45.6602" lon="2.98021">
        <ele>875.483405</ele>
        <time>2022-08-21T12:04:02.006Z</time>
      </trkpt>
      <trkpt lat="45.66022" lon="2.98043">
        <ele>875.764289</ele>
        <time>2022-08-21T12:04:07.342Z</time>
      </trkpt>
      <trkpt lat="45.65988" lon="2.98269">
        <ele>877.46055</ele>
        <time>2022-08-21T12:04:58.914Z</time>
      </trkpt>
      <trkpt lat="45.65983" lon="2.98296">
        <ele>877.325472</ele>
        <time>2022-08-21T12:05:04.357Z</time>
      </trkpt>
      <trkpt lat="45.65954" lon="2.98364">
        <ele>876.942094</ele>
        <time>2022-08-21T12:05:16.528Z</time>
      </trkpt>
      <trkpt lat="45.65931" lon="2.98426">
        <ele>876.604885</ele>
        <time>2022-08-21T12:05:25.439Z</time>
      </trkpt>
      <trkpt lat="45.65895" lon="2.98465">
        <ele>874.5907</ele>
        <time>2022-08-21T12:05:32.918Z</time>
      </trkpt>
      <trkpt lat="45.65879" lon="2.98511">
        <ele>872.791543</ele>
        <time>2022-08-21T12:05:42.801Z</time>
      </trkpt>
      <trkpt lat="45.65875" lon="2.98611">
        <ele>869.245246</ele>
        <time>2022-08-21T12:06:03.072Z</time>
      </trkpt>
      <trkpt lat="45.65873" lon="2.98642">
        <ele>868.167333</ele>
        <time>2022-08-21T12:06:09.330Z</time>
      </trkpt>
      <trkpt lat="45.65878" lon="2.9866">
        <ele>867.504467</ele>
        <time>2022-08-21T12:06:13.171Z</time>
      </trkpt>
      <trkpt lat="45.65888" lon="2.98687">
        <ele>866.765339</ele>
        <time>2022-08-21T12:06:19.282Z</time>
      </trkpt>
      <trkpt lat="45.65891" lon="2.98713">
        <ele>866.12876</ele>
        <time>2022-08-21T12:06:24.530Z</time>
      </trkpt>
      <trkpt lat="45.65895" lon="2.98703">
        <ele>865.855326</ele>
        <time>2022-08-21T12:06:26.829Z</time>
      </trkpt>
      <trkpt lat="45.65891" lon="2.98713">
        <ele>865.581891</ele>
        <time>2022-08-21T12:06:29.182Z</time>
      </trkpt>
      <trkpt lat="45.65898" lon="2.98756">
        <ele>864.544661</ele>
        <time>2022-08-21T12:06:38.167Z</time>
      </trkpt>
      <trkpt lat="45.65906" lon="2.98769">
        <ele>864.123074</ele>
        <time>2022-08-21T12:06:42.267Z</time>
      </trkpt>
      <trkpt lat="45.65952" lon="2.98783">
        <ele>862.507912</ele>
        <time>2022-08-21T12:06:56.985Z</time>
      </trkpt>
      <trkpt lat="45.65985" lon="2.988">
        <ele>861.328843</ele>
        <time>2022-08-21T12:07:08.634Z</time>
      </trkpt>
      <trkpt lat="45.66002" lon="2.98835">
        <ele>860.437596</ele>
        <time>2022-08-21T12:07:18.919Z</time>
      </trkpt>
      <trkpt lat="45.6602" lon="2.98912">
        <ele>858.720676</ele>
        <time>2022-08-21T12:07:36.823Z</time>
      </trkpt>
      <trkpt lat="45.66008" lon="2.99016">
        <ele>856.511827</ele>
        <time>2022-08-21T12:07:58.608Z</time>
      </trkpt>
      <trkpt lat="45.66009" lon="2.9904">
        <ele>855.988182</ele>
        <time>2022-08-21T12:08:03.575Z</time>
      </trkpt>
      <trkpt lat="45.66027" lon="2.99086">
        <ele>855.565442</ele>
        <time>2022-08-21T12:08:14.812Z</time>
      </trkpt>
      <trkpt lat="45.66041" lon="2.99146">
        <ele>855.088618</ele>
        <time>2022-08-21T12:08:29.074Z</time>
      </trkpt>
      <trkpt lat="45.6604" lon="2.9916">
        <ele>854.982939</ele>
        <time>2022-08-21T12:08:33.232Z</time>
      </trkpt>
      <trkpt lat="45.66027" lon="2.99187">
        <ele>854.730676</ele>
        <time>2022-08-21T12:08:40.883Z</time>
      </trkpt>
      <trkpt lat="45.66041" lon="2.9923">
        <ele>854.375228</ele>
        <time>2022-08-21T12:08:53.213Z</time>
      </trkpt>
      <trkpt lat="45.66055" lon="2.99242">
        <ele>854.187197</ele>
        <time>2022-08-21T12:09:01.002Z</time>
      </trkpt>
      <trkpt lat="45.6609" lon="2.99248">
        <ele>854.708859</ele>
        <time>2022-08-21T12:09:15.872Z</time>
      </trkpt>
      <trkpt lat="45.66143" lon="2.99251">
        <ele>856.875109</ele>
        <time>2022-08-21T12:09:40.114Z</time>
      </trkpt>
      <trkpt lat="45.66154" lon="2.99246">
        <ele>857.384487</ele>
        <time>2022-08-21T12:09:46.695Z</time>
      </trkpt>
      <trkpt lat="45.66194" lon="2.99208">
        <ele>859.364703</ele>
        <time>2022-08-21T12:10:18.939Z</time>
      </trkpt>
      <trkpt lat="45.66208" lon="2.99184">
        <ele>860.264584</ele>
        <time>2022-08-21T12:10:34.193Z</time>
      </trkpt>
      <trkpt lat="45.66247" lon="2.99151">
        <ele>862.393448</ele>
        <time>2022-08-21T12:11:05.109Z</time>
      </trkpt>
      <trkpt lat="45.66272" lon="2.99146">
        <ele>863.839802</ele>
        <time>2022-08-21T12:11:22.796Z</time>
      </trkpt>
      <trkpt lat="45.66327" lon="2.99168">
        <ele>867.104294</ele>
        <time>2022-08-21T12:12:00.905Z</time>
      </trkpt>
      <trkpt lat="45.66404" lon="2.99229">
        <ele>871.674033</ele>
        <time>2022-08-21T12:12:58.938Z</time>
      </trkpt>
      <trkpt lat="45.66443" lon="2.99277">
        <ele>871.52695</ele>
        <time>2022-08-21T12:13:27.303Z</time>
      </trkpt>
      <trkpt lat="45.66455" lon="2.99298">
        <ele>871.471726</ele>
        <time>2022-08-21T12:13:35.510Z</time>
      </trkpt>
      <trkpt lat="45.66467" lon="2.99345">
        <ele>871.371273</ele>
        <time>2022-08-21T12:13:47.754Z</time>
      </trkpt>
      <trkpt lat="45.66534" lon="2.99438">
        <ele>869.479829</ele>
        <time>2022-08-21T12:14:14.953Z</time>
      </trkpt>
      <trkpt lat="45.66604" lon="2.99495">
        <ele>864.190364</ele>
        <time>2022-08-21T12:14:37.591Z</time>
      </trkpt>
      <trkpt lat="45.66614" lon="2.99519">
        <ele>862.892987</ele>
        <time>2022-08-21T12:14:42.856Z</time>
      </trkpt>
      <trkpt lat="45.66621" lon="2.99553">
        <ele>861.303354</ele>
        <time>2022-08-21T12:14:49.384Z</time>
      </trkpt>
      <trkpt lat="45.66615" lon="2.99624">
        <ele>857.660966</ele>
        <time>2022-08-21T12:15:02.637Z</time>
      </trkpt>
      <trkpt lat="45.6663" lon="2.99657">
        <ele>855.458718</ele>
        <time>2022-08-21T12:15:09.677Z</time>
      </trkpt>
      <trkpt lat="45.66634" lon="2.99665">
        <ele>854.917645</ele>
        <time>2022-08-21T12:15:11.368Z</time>
      </trkpt>
      <trkpt lat="45.66649" lon="2.99717">
        <ele>851.71569</ele>
        <time>2022-08-21T12:15:21.666Z</time>
      </trkpt>
      <trkpt lat="45.66684" lon="2.99758">
        <ele>847.993212</ele>
        <time>2022-08-21T12:15:29.356Z</time>
      </trkpt>
      <trkpt lat="45.66692" lon="2.99778">
        <ele>846.674099</ele>
        <time>2022-08-21T12:15:32.115Z</time>
      </trkpt>
      <trkpt lat="45.66702" lon="2.99868">
        <ele>842.780193</ele>
        <time>2022-08-21T12:15:42.763Z</time>
      </trkpt>
      <trkpt lat="45.66706" lon="2.99898">
        <ele>841.72642</ele>
        <time>2022-08-21T12:15:46.022Z</time>
      </trkpt>
      <trkpt lat="45.6675" lon="2.99916">
        <ele>839.501968</ele>
        <time>2022-08-21T12:15:53.086Z</time>
      </trkpt>
      <trkpt lat="45.66768" lon="2.99945">
        <ele>838.158467</ele>
        <time>2022-08-21T12:15:57.630Z</time>
      </trkpt>
      <trkpt lat="45.66795" lon="2.99953">
        <ele>836.809952</ele>
        <time>2022-08-21T12:16:02.215Z</time>
      </trkpt>
      <trkpt lat="45.66912" lon="2.99915">
        <ele>835.112184</ele>
        <time>2022-08-21T12:16:25.967Z</time>
      </trkpt>
      <trkpt lat="45.66922" lon="2.9993">
        <ele>835.00013</ele>
        <time>2022-08-21T12:16:29.273Z</time>
      </trkpt>
      <trkpt lat="45.66942" lon="2.99962">
        <ele>834.770895</ele>
        <time>2022-08-21T12:16:36.353Z</time>
      </trkpt>
      <trkpt lat="45.66958" lon="3.00002">
        <ele>834.522448</ele>
        <time>2022-08-21T12:16:44.034Z</time>
      </trkpt>
      <trkpt lat="45.66967" lon="3.0002">
        <ele>834.766265</ele>
        <time>2022-08-21T12:16:47.839Z</time>
      </trkpt>
      <trkpt lat="45.66984" lon="3.00038">
        <ele>835.16686</ele>
        <time>2022-08-21T12:16:52.755Z</time>
      </trkpt>
      <trkpt lat="45.67001" lon="3.00038">
        <ele>835.480328</ele>
        <time>2022-08-21T12:16:57.100Z</time>
      </trkpt>
      <trkpt lat="45.6702" lon="3.00027">
        <ele>835.861292</ele>
        <time>2022-08-21T12:17:01.822Z</time>
      </trkpt>
      <trkpt lat="45.67094" lon="2.99953">
        <ele>837.545659</ele>
        <time>2022-08-21T12:17:34.001Z</time>
      </trkpt>
      <trkpt lat="45.67152" lon="2.99917">
        <ele>840.249984</ele>
        <time>2022-08-21T12:18:02.506Z</time>
      </trkpt>
      <trkpt lat="45.67179" lon="2.99893">
        <ele>841.878916</ele>
        <time>2022-08-21T12:18:17.455Z</time>
      </trkpt>
      <trkpt lat="45.67233" lon="2.99876">
        <ele>844.726883</ele>
        <time>2022-08-21T12:18:46.017Z</time>
      </trkpt>
      <trkpt lat="45.67262" lon="2.99881">
        <ele>846.1987</ele>
        <time>2022-08-21T12:19:01.867Z</time>
      </trkpt>
      <trkpt lat="45.67298" lon="2.99851">
        <ele>848.369298</ele>
        <time>2022-08-21T12:19:24.683Z</time>
      </trkpt>
      <trkpt lat="45.67389" lon="2.99744">
        <ele>854.61662</ele>
        <time>2022-08-21T12:20:24.112Z</time>
      </trkpt>
      <trkpt lat="45.67405" lon="2.99701">
        <ele>856.421842</ele>
        <time>2022-08-21T12:20:38.913Z</time>
      </trkpt>
      <trkpt lat="45.67412" lon="2.99681">
        <ele>857.121484</ele>
        <time>2022-08-21T12:20:46.568Z</time>
      </trkpt>
      <trkpt lat="45.67483" lon="2.99571">
        <ele>861.29752</ele>
        <time>2022-08-21T12:21:32.361Z</time>
      </trkpt>
      <trkpt lat="45.67509" lon="2.99544">
        <ele>862.591099</ele>
        <time>2022-08-21T12:21:46.231Z</time>
      </trkpt>
      <trkpt lat="45.67627" lon="2.99495">
        <ele>866.557809</ele>
        <time>2022-08-21T12:22:34.570Z</time>
      </trkpt>
      <trkpt lat="45.67653" lon="2.99501">
        <ele>867.351907</ele>
        <time>2022-08-21T12:22:44.695Z</time>
      </trkpt>
      <trkpt lat="45.67762" lon="2.99484">
        <ele>870.239018</ele>
        <time>2022-08-21T12:23:22.426Z</time>
      </trkpt>
      <trkpt lat="45.67785" lon="2.99486">
        <ele>870.744878</ele>
        <time>2022-08-21T12:23:29.754Z</time>
      </trkpt>
      <trkpt lat="45.67909" lon="2.99548">
        <ele>873.685187</ele>
        <time>2022-08-21T12:24:13.032Z</time>
      </trkpt>
      <trkpt lat="45.67969" lon="2.9959">
        <ele>875.192943</ele>
        <time>2022-08-21T12:24:36.411Z</time>
      </trkpt>
      <trkpt lat="45.68127" lon="2.99733">
        <ele>879.123601</ele>
        <time>2022-08-21T12:25:37.681Z</time>
      </trkpt>
      <trkpt lat="45.68165" lon="2.99783">
        <ele>880.141856</ele>
        <time>2022-08-21T12:25:54.329Z</time>
      </trkpt>
      <trkpt lat="45.68203" lon="2.99853">
        <ele>880.963273</ele>
        <time>2022-08-21T12:26:13.272Z</time>
      </trkpt>
      <trkpt lat="45.68209" lon="2.99864">
        <ele>881.027596</ele>
        <time>2022-08-21T12:26:15.770Z</time>
      </trkpt>
      <trkpt lat="45.68229" lon="2.99898">
        <ele>881.232543</ele>
        <time>2022-08-21T12:26:24.661Z</time>
      </trkpt>
      <trkpt lat="45.68275" lon="2.99897">
        <ele>881.540261</ele>
        <time>2022-08-21T12:26:37.672Z</time>
      </trkpt>
      <trkpt lat="45.68344" lon="2.99886">
        <ele>881.811759</ele>
        <time>2022-08-21T12:26:53.769Z</time>
      </trkpt>
      <trkpt lat="45.68372" lon="2.99887">
        <ele>881.076636</ele>
        <time>2022-08-21T12:26:59.608Z</time>
      </trkpt>
      <trkpt lat="45.68423" lon="2.99904">
        <ele>879.691264</ele>
        <time>2022-08-21T12:27:09.480Z</time>
      </trkpt>
      <trkpt lat="45.68585" lon="2.99949">
        <ele>874.704309</ele>
        <time>2022-08-21T12:27:38.271Z</time>
      </trkpt>
      <trkpt lat="45.68673" lon="2.99996">
        <ele>871.396177</ele>
        <time>2022-08-21T12:27:54.707Z</time>
      </trkpt>
      <trkpt lat="45.68711" lon="2.99994">
        <ele>870.562788</ele>
        <time>2022-08-21T12:28:01.723Z</time>
      </trkpt>
      <trkpt lat="45.68742" lon="2.99984">
        <ele>870.122126</ele>
        <time>2022-08-21T12:28:07.650Z</time>
      </trkpt>
      <trkpt lat="45.68764" lon="2.99973">
        <ele>869.791219</ele>
        <time>2022-08-21T12:28:12.288Z</time>
      </trkpt>
      <trkpt lat="45.68799" lon="2.99953">
        <ele>869.260674</ele>
        <time>2022-08-21T12:28:19.851Z</time>
      </trkpt>
      <trkpt lat="45.68822" lon="2.99939">
        <ele>868.901065</ele>
        <time>2022-08-21T12:28:25.208Z</time>
      </trkpt>
      <trkpt lat="45.68889" lon="2.99867">
        <ele>869.1775</ele>
        <time>2022-08-21T12:28:44.591Z</time>
      </trkpt>
      <trkpt lat="45.68908" lon="2.99856">
        <ele>869.534818</ele>
        <time>2022-08-21T12:28:50.130Z</time>
      </trkpt>
      <trkpt lat="45.68969" lon="2.99847">
        <ele>870.642766</ele>
        <time>2022-08-21T12:29:09.791Z</time>
      </trkpt>
      <trkpt lat="45.69023" lon="2.99818">
        <ele>871.874346</ele>
        <time>2022-08-21T12:29:32.315Z</time>
      </trkpt>
      <trkpt lat="45.69093" lon="2.99779">
        <ele>876.441734</ele>
        <time>2022-08-21T12:30:08.918Z</time>
      </trkpt>
      <trkpt lat="45.69145" lon="2.99745">
        <ele>879.850774</ele>
        <time>2022-08-21T12:30:41.606Z</time>
      </trkpt>
      <trkpt lat="45.69202" lon="2.9968">
        <ele>885.073939</ele>
        <time>2022-08-21T12:31:25.794Z</time>
      </trkpt>
      <trkpt lat="45.69233" lon="2.99712">
        <ele>888.460958</ele>
        <time>2022-08-21T12:31:53.813Z</time>
      </trkpt>
      <trkpt lat="45.69215" lon="2.99764">
        <ele>892.048646</ele>
        <time>2022-08-21T12:32:19.915Z</time>
      </trkpt>
      <trkpt lat="45.69206" lon="2.99808">
        <ele>894.890421</ele>
        <time>2022-08-21T12:32:42.540Z</time>
      </trkpt>
      <trkpt lat="45.6921" lon="2.99802">
        <ele>895.416007</ele>
        <time>2022-08-21T12:32:46.498Z</time>
      </trkpt>
      <trkpt lat="45.69262" lon="2.99747">
        <ele>900.845954</ele>
        <time>2022-08-21T12:33:34.581Z</time>
      </trkpt>
      <trkpt lat="45.69287" lon="2.9973">
        <ele>903.080044</ele>
        <time>2022-08-21T12:33:53.568Z</time>
      </trkpt>
      <trkpt lat="45.69345" lon="2.99713">
        <ele>907.891824</ele>
        <time>2022-08-21T12:34:32.915Z</time>
      </trkpt>
      <trkpt lat="45.69357" lon="2.99711">
        <ele>908.806005</ele>
        <time>2022-08-21T12:34:40.063Z</time>
      </trkpt>
      <trkpt lat="45.69384" lon="2.99706">
        <ele>911.01315</ele>
        <time>2022-08-21T12:34:55.718Z</time>
      </trkpt>
      <trkpt lat="45.6939" lon="2.99716">
        <ele>911.758286</ele>
        <time>2022-08-21T12:35:00.552Z</time>
      </trkpt>
      <trkpt lat="45.69396" lon="2.99717">
        <ele>912.265296</ele>
        <time>2022-08-21T12:35:03.814Z</time>
      </trkpt>
      <trkpt lat="45.69415" lon="2.99735">
        <ele>912.622003</ele>
        <time>2022-08-21T12:35:14.263Z</time>
      </trkpt>
      <trkpt lat="45.69463" lon="2.99746">
        <ele>912.095242</ele>
        <time>2022-08-21T12:35:33.864Z</time>
      </trkpt>
      <trkpt lat="45.69482" lon="2.99758">
        <ele>911.882935</ele>
        <time>2022-08-21T12:35:38.541Z</time>
      </trkpt>
      <trkpt lat="45.69577" lon="2.99874">
        <ele>908.311631</ele>
        <time>2022-08-21T12:35:58.389Z</time>
      </trkpt>
      <trkpt lat="45.69625" lon="2.99929">
        <ele>903.110502</ele>
        <time>2022-08-21T12:36:07.365Z</time>
      </trkpt>
      <trkpt lat="45.69729" lon="3.00023">
        <ele>892.803179</ele>
        <time>2022-08-21T12:36:24.787Z</time>
      </trkpt>
      <trkpt lat="45.69946" lon="3.00229">
        <ele>872.2204</ele>
        <time>2022-08-21T12:37:03.110Z</time>
      </trkpt>
      <trkpt lat="45.6998" lon="3.00273">
        <ele>868.928548</ele>
        <time>2022-08-21T12:37:10.101Z</time>
      </trkpt>
      <trkpt lat="45.70029" lon="3.00358">
        <ele>863.638931</ele>
        <time>2022-08-21T12:37:22.033Z</time>
      </trkpt>
      <trkpt lat="45.70063" lon="3.00447">
        <ele>858.881642</ele>
        <time>2022-08-21T12:37:32.857Z</time>
      </trkpt>
      <trkpt lat="45.70081" lon="3.0053">
        <ele>854.701151</ele>
        <time>2022-08-21T12:37:41.779Z</time>
      </trkpt>
      <trkpt lat="45.70111" lon="3.00532">
        <ele>852.267479</ele>
        <time>2022-08-21T12:37:46.171Z</time>
      </trkpt>
      <trkpt lat="45.70188" lon="3.00564">
        <ele>845.812063</ele>
        <time>2022-08-21T12:37:57.865Z</time>
      </trkpt>
      <trkpt lat="45.70197" lon="3.00568">
        <ele>845.080868</ele>
        <time>2022-08-21T12:37:59.177Z</time>
      </trkpt>
      <trkpt lat="45.702" lon="3.00569">
        <ele>844.82947</ele>
        <time>2022-08-21T12:37:59.635Z</time>
      </trkpt>
      <trkpt lat="45.70269" lon="3.00605">
        <ele>839.786392</ele>
        <time>2022-08-21T12:38:10.543Z</time>
      </trkpt>
      <trkpt lat="45.70354" lon="3.00667">
        <ele>835.195869</ele>
        <time>2022-08-21T12:38:25.580Z</time>
      </trkpt>
      <trkpt lat="45.70367" lon="3.00674">
        <ele>834.531502</ele>
        <time>2022-08-21T12:38:27.893Z</time>
      </trkpt>
      <trkpt lat="45.70377" lon="3.00678">
        <ele>834.050801</ele>
        <time>2022-08-21T12:38:29.585Z</time>
      </trkpt>
      <trkpt lat="45.70476" lon="3.00729">
        <ele>831.288287</ele>
        <time>2022-08-21T12:38:48.723Z</time>
      </trkpt>
      <trkpt lat="45.70621" lon="3.00803">
        <ele>828.912221</ele>
        <time>2022-08-21T12:39:19.175Z</time>
      </trkpt>
      <trkpt lat="45.70648" lon="3.0082">
        <ele>828.513444</ele>
        <time>2022-08-21T12:39:24.835Z</time>
      </trkpt>
      <trkpt lat="45.70685" lon="3.00867">
        <ele>827.836802</ele>
        <time>2022-08-21T12:39:34.372Z</time>
      </trkpt>
      <trkpt lat="45.70757" lon="3.00971">
        <ele>826.385904</ele>
        <time>2022-08-21T12:39:53.535Z</time>
      </trkpt>
      <trkpt lat="45.70804" lon="3.01057">
        <ele>825.256393</ele>
        <time>2022-08-21T12:40:08.102Z</time>
      </trkpt>
      <trkpt lat="45.70894" lon="3.01187">
        <ele>823.958619</ele>
        <time>2022-08-21T12:40:32.702Z</time>
      </trkpt>
      <trkpt lat="45.70906" lon="3.01233">
        <ele>823.742287</ele>
        <time>2022-08-21T12:40:39.536Z</time>
      </trkpt>
      <trkpt lat="45.70907" lon="3.01272">
        <ele>823.572372</ele>
        <time>2022-08-21T12:40:45.027Z</time>
      </trkpt>
      <trkpt lat="45.70905" lon="3.01292">
        <ele>823.481612</ele>
        <time>2022-08-21T12:40:48.177Z</time>
      </trkpt>
      <trkpt lat="45.70893" lon="3.01321">
        <ele>823.334182</ele>
        <time>2022-08-21T12:40:53.002Z</time>
      </trkpt>
      <trkpt lat="45.7097" lon="3.0149">
        <ele>827.0961</ele>
        <time>2022-08-21T12:41:37.149Z</time>
      </trkpt>
      <trkpt lat="45.70998" lon="3.01527">
        <ele>828.196382</ele>
        <time>2022-08-21T12:41:55.451Z</time>
      </trkpt>
      <trkpt lat="45.71202" lon="3.01669">
        <ele>843.188244</ele>
        <time>2022-08-21T12:44:10.181Z</time>
      </trkpt>
      <trkpt lat="45.71211" lon="3.01676">
        <ele>843.771848</ele>
        <time>2022-08-21T12:44:15.946Z</time>
      </trkpt>
      <trkpt lat="45.71287" lon="3.01728">
        <ele>848.44618</ele>
        <time>2022-08-21T12:44:57.672Z</time>
      </trkpt>
      <trkpt lat="45.71365" lon="3.01779">
        <ele>852.515658</ele>
        <time>2022-08-21T12:45:33.782Z</time>
      </trkpt>
      <trkpt lat="45.7163" lon="3.01844">
        <ele>862.065125</ele>
        <time>2022-08-21T12:47:21.920Z</time>
      </trkpt>
      <trkpt lat="45.71735" lon="3.0187">
        <ele>865.082266</ele>
        <time>2022-08-21T12:48:00.573Z</time>
      </trkpt>
      <trkpt lat="45.71753" lon="3.01875">
        <ele>865.513078</ele>
        <time>2022-08-21T12:48:06.586Z</time>
      </trkpt>
      <trkpt lat="45.71811" lon="3.01889">
        <ele>866.894941</ele>
        <time>2022-08-21T12:48:26.173Z</time>
      </trkpt>
      <trkpt lat="45.71844" lon="3.01898">
        <ele>867.668567</ele>
        <time>2022-08-21T12:48:36.783Z</time>
      </trkpt>
      <trkpt lat="45.71866" lon="3.01902">
        <ele>868.158786</ele>
        <time>2022-08-21T12:48:43.795Z</time>
      </trkpt>
      <trkpt lat="45.7188" lon="3.01899">
        <ele>868.417456</ele>
        <time>2022-08-21T12:48:48.606Z</time>
      </trkpt>
      <trkpt lat="45.71891" lon="3.01912">
        <ele>868.694109</ele>
        <time>2022-08-21T12:48:53.239Z</time>
      </trkpt>
      <trkpt lat="45.71979" lon="3.01965">
        <ele>870.495614</ele>
        <time>2022-08-21T12:49:25.920Z</time>
      </trkpt>
      <trkpt lat="45.72019" lon="3.01973">
        <ele>871.264993</ele>
        <time>2022-08-21T12:49:38.301Z</time>
      </trkpt>
      <trkpt lat="45.72045" lon="3.01967">
        <ele>871.403404</ele>
        <time>2022-08-21T12:49:44.906Z</time>
      </trkpt>
      <trkpt lat="45.72061" lon="3.01951">
        <ele>871.363203</ele>
        <time>2022-08-21T12:49:49.779Z</time>
      </trkpt>
      <trkpt lat="45.72066" lon="3.01945">
        <ele>871.350643</ele>
        <time>2022-08-21T12:49:51.109Z</time>
      </trkpt>
      <trkpt lat="45.72094" lon="3.01832">
        <ele>871.182546</ele>
        <time>2022-08-21T12:50:09.110Z</time>
      </trkpt>
      <trkpt lat="45.7211" lon="3.01825">
        <ele>871.148581</ele>
        <time>2022-08-21T12:50:12.540Z</time>
      </trkpt>
      <trkpt lat="45.72132" lon="3.01826">
        <ele>871.104337</ele>
        <time>2022-08-21T12:50:16.883Z</time>
      </trkpt>
      <trkpt lat="45.72174" lon="3.01833">
        <ele>870.853499</ele>
        <time>2022-08-21T12:50:25.164Z</time>
      </trkpt>
      <trkpt lat="45.72168" lon="3.01878">
        <ele>870.605153</ele>
        <time>2022-08-21T12:50:31.349Z</time>
      </trkpt>
      <trkpt lat="45.72158" lon="3.01952">
        <ele>870.198583</ele>
        <time>2022-08-21T12:50:41.425Z</time>
      </trkpt>
      <trkpt lat="45.7217" lon="3.02032">
        <ele>869.759089</ele>
        <time>2022-08-21T12:50:53.053Z</time>
      </trkpt>
      <trkpt lat="45.7217" lon="3.02058">
        <ele>869.772761</ele>
        <time>2022-08-21T12:50:57.749Z</time>
      </trkpt>
      <trkpt lat="45.72148" lon="3.02125">
        <ele>870.341626</ele>
        <time>2022-08-21T12:51:12.139Z</time>
      </trkpt>
      <trkpt lat="45.72145" lon="3.02216">
        <ele>871.040304</ele>
        <time>2022-08-21T12:51:30.802Z</time>
      </trkpt>
      <trkpt lat="45.72131" lon="3.02261">
        <ele>871.42637</ele>
        <time>2022-08-21T12:51:41.174Z</time>
      </trkpt>
      <trkpt lat="45.72127" lon="3.02295">
        <ele>871.665086</ele>
        <time>2022-08-21T12:51:48.545Z</time>
      </trkpt>
      <trkpt lat="45.72132" lon="3.02322">
        <ele>871.677742</ele>
        <time>2022-08-21T12:51:54.382Z</time>
      </trkpt>
      <trkpt lat="45.72164" lon="3.02465">
        <ele>871.745437</ele>
        <time>2022-08-21T12:52:21.344Z</time>
      </trkpt>
      <trkpt lat="45.72176" lon="3.02545">
        <ele>871.684014</ele>
        <time>2022-08-21T12:52:32.346Z</time>
      </trkpt>
      <trkpt lat="45.72172" lon="3.02574">
        <ele>871.195677</ele>
        <time>2022-08-21T12:52:35.999Z</time>
      </trkpt>
      <trkpt lat="45.72122" lon="3.02762">
        <ele>867.835445</ele>
        <time>2022-08-21T12:53:00.712Z</time>
      </trkpt>
      <trkpt lat="45.72104" lon="3.02863">
        <ele>866.296097</ele>
        <time>2022-08-21T12:53:13.458Z</time>
      </trkpt>
      <trkpt lat="45.72106" lon="3.02895">
        <ele>865.836417</ele>
        <time>2022-08-21T12:53:17.527Z</time>
      </trkpt>
      <trkpt lat="45.72135" lon="3.02985">
        <ele>864.422352</ele>
        <time>2022-08-21T12:53:30.527Z</time>
      </trkpt>
      <trkpt lat="45.72154" lon="3.03062">
        <ele>863.356488</ele>
        <time>2022-08-21T12:53:41.557Z</time>
      </trkpt>
      <trkpt lat="45.72167" lon="3.03168">
        <ele>862.126007</ele>
        <time>2022-08-21T12:53:55.784Z</time>
      </trkpt>
      <trkpt lat="45.72154" lon="3.03311">
        <ele>860.445139</ele>
        <time>2022-08-21T12:54:14.504Z</time>
      </trkpt>
      <trkpt lat="45.72151" lon="3.03407">
        <ele>859.302821</ele>
        <time>2022-08-21T12:54:26.937Z</time>
      </trkpt>
      <trkpt lat="45.72189" lon="3.03549">
        <ele>857.33313</ele>
        <time>2022-08-21T12:54:47.134Z</time>
      </trkpt>
      <trkpt lat="45.72201" lon="3.03593">
        <ele>856.455781</ele>
        <time>2022-08-21T12:54:53.217Z</time>
      </trkpt>
      <trkpt lat="45.72224" lon="3.0365">
        <ele>855.228831</ele>
        <time>2022-08-21T12:55:01.367Z</time>
      </trkpt>
      <trkpt lat="45.7229" lon="3.03726">
        <ele>852.971778</ele>
        <time>2022-08-21T12:55:15.801Z</time>
      </trkpt>
      <trkpt lat="45.72297" lon="3.03748">
        <ele>852.44453</ele>
        <time>2022-08-21T12:55:18.650Z</time>
      </trkpt>
      <trkpt lat="45.72321" lon="3.03817">
        <ele>850.788531</ele>
        <time>2022-08-21T12:55:27.594Z</time>
      </trkpt>
      <trkpt lat="45.72343" lon="3.03894">
        <ele>848.982166</ele>
        <time>2022-08-21T12:55:37.433Z</time>
      </trkpt>
      <trkpt lat="45.72345" lon="3.03904">
        <ele>848.778897</ele>
        <time>2022-08-21T12:55:38.573Z</time>
      </trkpt>
      <trkpt lat="45.72349" lon="3.03939">
        <ele>848.005344</ele>
        <time>2022-08-21T12:55:42.929Z</time>
      </trkpt>
      <trkpt lat="45.72348" lon="3.04016">
        <ele>846.883072</ele>
        <time>2022-08-21T12:55:52.922Z</time>
      </trkpt>
      <trkpt lat="45.72351" lon="3.04066">
        <ele>846.363205</ele>
        <time>2022-08-21T12:56:00.033Z</time>
      </trkpt>
      <trkpt lat="45.72353" lon="3.04081">
        <ele>846.200615</ele>
        <time>2022-08-21T12:56:02.274Z</time>
      </trkpt>
      <trkpt lat="45.72361" lon="3.04125">
        <ele>845.733927</ele>
        <time>2022-08-21T12:56:08.424Z</time>
      </trkpt>
      <trkpt lat="45.72368" lon="3.0415">
        <ele>845.450734</ele>
        <time>2022-08-21T12:56:12.281Z</time>
      </trkpt>
      <trkpt lat="45.72372" lon="3.04162">
        <ele>845.311715</ele>
        <time>2022-08-21T12:56:14.021Z</time>
      </trkpt>
      <trkpt lat="45.72404" lon="3.04259">
        <ele>843.544287</ele>
        <time>2022-08-21T12:56:28.101Z</time>
      </trkpt>
      <trkpt lat="45.72414" lon="3.04285">
        <ele>842.857291</ele>
        <time>2022-08-21T12:56:31.889Z</time>
      </trkpt>
      <trkpt lat="45.7242" lon="3.04304">
        <ele>842.349721</ele>
        <time>2022-08-21T12:56:34.465Z</time>
      </trkpt>
      <trkpt lat="45.72435" lon="3.04416">
        <ele>839.674309</ele>
        <time>2022-08-21T12:56:47.705Z</time>
      </trkpt>
      <trkpt lat="45.7244" lon="3.04453">
        <ele>838.777468</ele>
        <time>2022-08-21T12:56:51.965Z</time>
      </trkpt>
      <trkpt lat="45.72444" lon="3.04462">
        <ele>838.433621</ele>
        <time>2022-08-21T12:56:53.042Z</time>
      </trkpt>
      <trkpt lat="45.72466" lon="3.04497">
        <ele>836.033501</ele>
        <time>2022-08-21T12:56:58.213Z</time>
      </trkpt>
      <trkpt lat="45.72474" lon="3.04532">
        <ele>834.190206</ele>
        <time>2022-08-21T12:57:02.169Z</time>
      </trkpt>
      <trkpt lat="45.72472" lon="3.04539">
        <ele>833.804686</ele>
        <time>2022-08-21T12:57:02.964Z</time>
      </trkpt>
      <trkpt lat="45.72487" lon="3.04575">
        <ele>831.741704</ele>
        <time>2022-08-21T12:57:07.403Z</time>
      </trkpt>
      <trkpt lat="45.72516" lon="3.04604">
        <ele>829.192275</ele>
        <time>2022-08-21T12:57:12.827Z</time>
      </trkpt>
      <trkpt lat="45.72518" lon="3.04649">
        <ele>826.907945</ele>
        <time>2022-08-21T12:57:17.680Z</time>
      </trkpt>
      <trkpt lat="45.72522" lon="3.04695">
        <ele>824.561041</ele>
        <time>2022-08-21T12:57:22.636Z</time>
      </trkpt>
      <trkpt lat="45.72523" lon="3.04728">
        <ele>822.824818</ele>
        <time>2022-08-21T12:57:26.263Z</time>
      </trkpt>
      <trkpt lat="45.7252" lon="3.04754">
        <ele>821.473099</ele>
        <time>2022-08-21T12:57:28.986Z</time>
      </trkpt>
      <trkpt lat="45.72499" lon="3.04769">
        <ele>819.752289</ele>
        <time>2022-08-21T12:57:32.679Z</time>
      </trkpt>
      <trkpt lat="45.72495" lon="3.04792">
        <ele>818.548461</ele>
        <time>2022-08-21T12:57:35.122Z</time>
      </trkpt>
      <trkpt lat="45.72492" lon="3.04806">
        <ele>817.80214</ele>
        <time>2022-08-21T12:57:36.716Z</time>
      </trkpt>
      <trkpt lat="45.72509" lon="3.04833">
        <ele>815.926599</ele>
        <time>2022-08-21T12:57:40.396Z</time>
      </trkpt>
      <trkpt lat="45.72556" lon="3.04879">
        <ele>812.101459</ele>
        <time>2022-08-21T12:57:49.170Z</time>
      </trkpt>
      <trkpt lat="45.72576" lon="3.04882">
        <ele>811.501592</ele>
        <time>2022-08-21T12:57:52.073Z</time>
      </trkpt>
      <trkpt lat="45.72646" lon="3.04898">
        <ele>809.280052</ele>
        <time>2022-08-21T12:58:04.354Z</time>
      </trkpt>
      <trkpt lat="45.72649" lon="3.04899">
        <ele>809.176996</ele>
        <time>2022-08-21T12:58:04.970Z</time>
      </trkpt>
      <trkpt lat="45.72677" lon="3.04914">
        <ele>808.280368</ele>
        <time>2022-08-21T12:58:10.285Z</time>
      </trkpt>
      <trkpt lat="45.72687" lon="3.04918">
        <ele>807.944899</ele>
        <time>2022-08-21T12:58:12.346Z</time>
      </trkpt>
      <trkpt lat="45.72732" lon="3.04933">
        <ele>806.784752</ele>
        <time>2022-08-21T12:58:21.301Z</time>
      </trkpt>
      <trkpt lat="45.72758" lon="3.04929">
        <ele>806.6919</ele>
        <time>2022-08-21T12:58:26.796Z</time>
      </trkpt>
      <trkpt lat="45.728" lon="3.04924">
        <ele>806.541323</ele>
        <time>2022-08-21T12:58:36.049Z</time>
      </trkpt>
      <trkpt lat="45.72815" lon="3.04925">
        <ele>806.488068</ele>
        <time>2022-08-21T12:58:39.355Z</time>
      </trkpt>
      <trkpt lat="45.7284" lon="3.04928">
        <ele>806.398324</ele>
        <time>2022-08-21T12:58:45.222Z</time>
      </trkpt>
      <trkpt lat="45.72863" lon="3.04931">
        <ele>806.316459</ele>
        <time>2022-08-21T12:58:50.312Z</time>
      </trkpt>
      <trkpt lat="45.72887" lon="3.04935">
        <ele>806.229485</ele>
        <time>2022-08-21T12:58:55.629Z</time>
      </trkpt>
      <trkpt lat="45.72913" lon="3.0494">
        <ele>806.037883</ele>
        <time>2022-08-21T12:59:01.343Z</time>
      </trkpt>
      <trkpt lat="45.72954" lon="3.0496">
        <ele>805.528919</ele>
        <time>2022-08-21T12:59:10.372Z</time>
      </trkpt>
      <trkpt lat="45.72975" lon="3.0498">
        <ele>805.230246</ele>
        <time>2022-08-21T12:59:15.583Z</time>
      </trkpt>
      <trkpt lat="45.72992" lon="3.05007">
        <ele>804.939817</ele>
        <time>2022-08-21T12:59:20.404Z</time>
      </trkpt>
      <trkpt lat="45.73017" lon="3.05045">
        <ele>804.514699</ele>
        <time>2022-08-21T12:59:27.365Z</time>
      </trkpt>
      <trkpt lat="45.73092" lon="3.05125">
        <ele>801.848164</ele>
        <time>2022-08-21T12:59:44.344Z</time>
      </trkpt>
      <trkpt lat="45.73122" lon="3.05154">
        <ele>800.393379</ele>
        <time>2022-08-21T12:59:50.335Z</time>
      </trkpt>
      <trkpt lat="45.73178" lon="3.05181">
        <ele>798.057474</ele>
        <time>2022-08-21T12:59:59.828Z</time>
      </trkpt>
      <trkpt lat="45.73213" lon="3.05211">
        <ele>795.841181</ele>
        <time>2022-08-21T13:00:06.283Z</time>
      </trkpt>
      <trkpt lat="45.73248" lon="3.05235">
        <ele>792.510169</ele>
        <time>2022-08-21T13:00:12.242Z</time>
      </trkpt>
      <trkpt lat="45.73388" lon="3.05309">
        <ele>778.476905</ele>
        <time>2022-08-21T13:00:33.486Z</time>
      </trkpt>
      <trkpt lat="45.73405" lon="3.05324">
        <ele>775.46618</ele>
        <time>2022-08-21T13:00:36.244Z</time>
      </trkpt>
      <trkpt lat="45.73413" lon="3.05333">
        <ele>774.000976</ele>
        <time>2022-08-21T13:00:37.599Z</time>
      </trkpt>
      <trkpt lat="45.73397" lon="3.05297">
        <ele>769.527943</ele>
        <time>2022-08-21T13:00:44.964Z</time>
      </trkpt>
      <trkpt lat="45.7339" lon="3.05257">
        <ele>765.284332</ele>
        <time>2022-08-21T13:00:51.804Z</time>
      </trkpt>
      <trkpt lat="45.73382" lon="3.05239">
        <ele>763.04596</ele>
        <time>2022-08-21T13:00:55.329Z</time>
      </trkpt>
      <trkpt lat="45.73498" lon="3.05285">
        <ele>740.843307</ele>
        <time>2022-08-21T13:01:23.471Z</time>
      </trkpt>
      <trkpt lat="45.73534" lon="3.05306">
        <ele>732.355727</ele>
        <time>2022-08-21T13:01:32.573Z</time>
      </trkpt>
      <trkpt lat="45.73577" lon="3.05465">
        <ele>705.951315</ele>
        <time>2022-08-21T13:01:59.971Z</time>
      </trkpt>
      <trkpt lat="45.73639" lon="3.05606">
        <ele>678.635405</ele>
        <time>2022-08-21T13:02:26.781Z</time>
      </trkpt>
      <trkpt lat="45.73653" lon="3.05664">
        <ele>668.467769</ele>
        <time>2022-08-21T13:02:36.742Z</time>
      </trkpt>
      <trkpt lat="45.73646" lon="3.05715">
        <ele>659.882077</ele>
        <time>2022-08-21T13:02:45.053Z</time>
      </trkpt>
      <trkpt lat="45.73631" lon="3.05734">
        <ele>655.1234</ele>
        <time>2022-08-21T13:02:49.675Z</time>
      </trkpt>
      <trkpt lat="45.73676" lon="3.05738">
        <ele>644.435384</ele>
        <time>2022-08-21T13:03:00.000Z</time>
      </trkpt>
      <trkpt lat="45.73696" lon="3.05752">
        <ele>638.979462</ele>
        <time>2022-08-21T13:03:05.267Z</time>
      </trkpt>
      <trkpt lat="45.73772" lon="3.05888">
        <ele>616.455298</ele>
        <time>2022-08-21T13:03:21.869Z</time>
      </trkpt>
      <trkpt lat="45.73803" lon="3.05953">
        <ele>607.540491</ele>
        <time>2022-08-21T13:03:29.604Z</time>
      </trkpt>
      <trkpt lat="45.73834" lon="3.06039">
        <ele>599.000337</ele>
        <time>2022-08-21T13:03:39.617Z</time>
      </trkpt>
      <trkpt lat="45.73864" lon="3.06025">
        <ele>596.650805</ele>
        <time>2022-08-21T13:03:44.169Z</time>
      </trkpt>
      <trkpt lat="45.73897" lon="3.06009">
        <ele>594.016653</ele>
        <time>2022-08-21T13:03:49.390Z</time>
      </trkpt>
      <trkpt lat="45.73964" lon="3.05977">
        <ele>588.597345</ele>
        <time>2022-08-21T13:04:00.300Z</time>
      </trkpt>
      <trkpt lat="45.73967" lon="3.05985">
        <ele>588.125026</ele>
        <time>2022-08-21T13:04:01.293Z</time>
      </trkpt>
      <trkpt lat="45.74005" lon="3.06013">
        <ele>585.155703</ele>
        <time>2022-08-21T13:04:08.318Z</time>
      </trkpt>
      <trkpt lat="45.74041" lon="3.06035">
        <ele>582.496005</ele>
        <time>2022-08-21T13:04:14.417Z</time>
      </trkpt>
      <trkpt lat="45.74046" lon="3.06039">
        <ele>582.100787</ele>
        <time>2022-08-21T13:04:15.307Z</time>
      </trkpt>
      <trkpt lat="45.74104" lon="3.06065">
        <ele>577.936543</ele>
        <time>2022-08-21T13:04:24.754Z</time>
      </trkpt>
      <trkpt lat="45.7416" lon="3.06087">
        <ele>574.047255</ele>
        <time>2022-08-21T13:04:34.032Z</time>
      </trkpt>
      <trkpt lat="45.74167" lon="3.06094">
        <ele>573.524086</ele>
        <time>2022-08-21T13:04:35.310Z</time>
      </trkpt>
      <trkpt lat="45.74181" lon="3.06104">
        <ele>572.55349</ele>
        <time>2022-08-21T13:04:37.809Z</time>
      </trkpt>
      <trkpt lat="45.74202" lon="3.06094">
        <ele>571.161692</ele>
        <time>2022-08-21T13:04:41.328Z</time>
      </trkpt>
      <trkpt lat="45.74244" lon="3.06126">
        <ele>568.148098</ele>
        <time>2022-08-21T13:04:48.875Z</time>
      </trkpt>
      <trkpt lat="45.7429" lon="3.06149">
        <ele>565.090988</ele>
        <time>2022-08-21T13:04:56.741Z</time>
      </trkpt>
      <trkpt lat="45.74324" lon="3.06176">
        <ele>562.870768</ele>
        <time>2022-08-21T13:05:03.149Z</time>
      </trkpt>
      <trkpt lat="45.74355" lon="3.06195">
        <ele>561.198358</ele>
        <time>2022-08-21T13:05:08.787Z</time>
      </trkpt>
      <trkpt lat="45.74367" lon="3.06184">
        <ele>560.460704</ele>
        <time>2022-08-21T13:05:11.175Z</time>
      </trkpt>
      <trkpt lat="45.7439" lon="3.06219">
        <ele>558.785559</ele>
        <time>2022-08-21T13:05:16.633Z</time>
      </trkpt>
      <trkpt lat="45.7442" lon="3.06262">
        <ele>556.654537</ele>
        <time>2022-08-21T13:05:23.566Z</time>
      </trkpt>
      <trkpt lat="45.74464" lon="3.06323">
        <ele>552.94567</ele>
        <time>2022-08-21T13:05:33.166Z</time>
      </trkpt>
      <trkpt lat="45.74523" lon="3.064">
        <ele>547.074304</ele>
        <time>2022-08-21T13:05:45.267Z</time>
      </trkpt>
      <trkpt lat="45.74593" lon="3.06503">
        <ele>538.895091</ele>
        <time>2022-08-21T13:05:59.692Z</time>
      </trkpt>
      <trkpt lat="45.74615" lon="3.06594">
        <ele>531.733152</ele>
        <time>2022-08-21T13:06:09.253Z</time>
      </trkpt>
      <trkpt lat="45.74603" lon="3.06607">
        <ele>530.176676</ele>
        <time>2022-08-21T13:06:11.383Z</time>
      </trkpt>
      <trkpt lat="45.74593" lon="3.06638">
        <ele>527.632861</ele>
        <time>2022-08-21T13:06:14.879Z</time>
      </trkpt>
      <trkpt lat="45.74598" lon="3.06678">
        <ele>524.596626</ele>
        <time>2022-08-21T13:06:19.110Z</time>
      </trkpt>
      <trkpt lat="45.74625" lon="3.06764">
        <ele>517.107586</ele>
        <time>2022-08-21T13:06:28.674Z</time>
      </trkpt>
      <trkpt lat="45.74676" lon="3.06782">
        <ele>510.856115</ele>
        <time>2022-08-21T13:06:36.367Z</time>
      </trkpt>
      <trkpt lat="45.74679" lon="3.06815">
        <ele>508.083491</ele>
        <time>2022-08-21T13:06:39.798Z</time>
      </trkpt>
      <trkpt lat="45.74675" lon="3.06881">
        <ele>502.637635</ele>
        <time>2022-08-21T13:06:46.420Z</time>
      </trkpt>
      <trkpt lat="45.74666" lon="3.06941">
        <ele>498.393248</ele>
        <time>2022-08-21T13:06:52.596Z</time>
      </trkpt>
      <trkpt lat="45.74647" lon="3.07005">
        <ele>493.868437</ele>
        <time>2022-08-21T13:06:59.806Z</time>
      </trkpt>
      <trkpt lat="45.74659" lon="3.0701">
        <ele>492.646188</ele>
        <time>2022-08-21T13:07:01.700Z</time>
      </trkpt>
      <trkpt lat="45.74674" lon="3.07017">
        <ele>491.22029</ele>
        <time>2022-08-21T13:07:03.882Z</time>
      </trkpt>
      <trkpt lat="45.74687" lon="3.07024">
        <ele>489.86251</ele>
        <time>2022-08-21T13:07:05.997Z</time>
      </trkpt>
      <trkpt lat="45.74709" lon="3.07035">
        <ele>487.713777</ele>
        <time>2022-08-21T13:07:09.364Z</time>
      </trkpt>
      <trkpt lat="45.74725" lon="3.07056">
        <ele>485.731451</ele>
        <time>2022-08-21T13:07:12.503Z</time>
      </trkpt>
      <trkpt lat="45.74729" lon="3.07064">
        <ele>485.073635</ele>
        <time>2022-08-21T13:07:13.556Z</time>
      </trkpt>
      <trkpt lat="45.74733" lon="3.07073">
        <ele>484.456569</ele>
        <time>2022-08-21T13:07:14.631Z</time>
      </trkpt>
      <trkpt lat="45.74736" lon="3.07082">
        <ele>484.020036</ele>
        <time>2022-08-21T13:07:15.754Z</time>
      </trkpt>
      <trkpt lat="45.7474" lon="3.07106">
        <ele>483.01755</ele>
        <time>2022-08-21T13:07:18.359Z</time>
      </trkpt>
      <trkpt lat="45.74743" lon="3.07229">
        <ele>477.979954</ele>
        <time>2022-08-21T13:07:31.803Z</time>
      </trkpt>
      <trkpt lat="45.74789" lon="3.07503">
        <ele>467.474209</ele>
        <time>2022-08-21T13:08:02.531Z</time>
      </trkpt>
      <trkpt lat="45.74799" lon="3.07562">
        <ele>465.31811</ele>
        <time>2022-08-21T13:08:09.328Z</time>
      </trkpt>
      <trkpt lat="45.74803" lon="3.07585">
        <ele>464.701969</ele>
        <time>2022-08-21T13:08:11.962Z</time>
      </trkpt>
      <trkpt lat="45.7482" lon="3.07686">
        <ele>463.029261</ele>
        <time>2022-08-21T13:08:24.314Z</time>
      </trkpt>
      <trkpt lat="45.7484" lon="3.078">
        <ele>461.136909</ele>
        <time>2022-08-21T13:08:40.428Z</time>
      </trkpt>
      <trkpt lat="45.74844" lon="3.07818">
        <ele>460.845552</ele>
        <time>2022-08-21T13:08:43.042Z</time>
      </trkpt>
      <trkpt lat="45.74852" lon="3.07834">
        <ele>460.587073</ele>
        <time>2022-08-21T13:08:45.851Z</time>
      </trkpt>
      <trkpt lat="45.74874" lon="3.0786">
        <ele>460.124877</ele>
        <time>2022-08-21T13:08:51.702Z</time>
      </trkpt>
      <trkpt lat="45.74879" lon="3.07864">
        <ele>460.031543</ele>
        <time>2022-08-21T13:08:52.787Z</time>
      </trkpt>
      <trkpt lat="45.74922" lon="3.07887">
        <ele>459.300271</ele>
        <time>2022-08-21T13:09:01.508Z</time>
      </trkpt>
      <trkpt lat="45.74961" lon="3.0791">
        <ele>458.611395</ele>
        <time>2022-08-21T13:09:09.726Z</time>
      </trkpt>
      <trkpt lat="45.74981" lon="3.0792">
        <ele>458.270914</ele>
        <time>2022-08-21T13:09:13.610Z</time>
      </trkpt>
      <trkpt lat="45.74986" lon="3.07921">
        <ele>458.188659</ele>
        <time>2022-08-21T13:09:14.542Z</time>
      </trkpt>
      <trkpt lat="45.74987" lon="3.07933">
        <ele>458.052184</ele>
        <time>2022-08-21T13:09:16.266Z</time>
      </trkpt>
      <trkpt lat="45.74988" lon="3.07947">
        <ele>457.8915</ele>
        <time>2022-08-21T13:09:18.059Z</time>
      </trkpt>
      <trkpt lat="45.75011" lon="3.08078">
        <ele>454.209908</ele>
        <time>2022-08-21T13:09:33.762Z</time>
      </trkpt>
      <trkpt lat="45.7502" lon="3.08133">
        <ele>452.633623</ele>
        <time>2022-08-21T13:09:40.077Z</time>
      </trkpt>
      <trkpt lat="45.75023" lon="3.0817">
        <ele>451.608002</ele>
        <time>2022-08-21T13:09:44.451Z</time>
      </trkpt>
      <trkpt lat="45.7503" lon="3.08244">
        <ele>450.640693</ele>
        <time>2022-08-21T13:09:53.194Z</time>
      </trkpt>
      <trkpt lat="45.75034" lon="3.08284">
        <ele>450.640693</ele>
        <time>2022-08-21T13:09:57.820Z</time>
      </trkpt>
      <trkpt lat="45.75033" lon="3.08371">
        <ele>450.640693</ele>
        <time>2022-08-21T13:10:08.183Z</time>
      </trkpt>
      <trkpt lat="45.75035" lon="3.08403">
        <ele>450.640693</ele>
        <time>2022-08-21T13:10:12.206Z</time>
      </trkpt>
      <trkpt lat="45.75015" lon="3.08418">
        <ele>450.640693</ele>
        <time>2022-08-21T13:10:16.142Z</time>
      </trkpt>
      <trkpt lat="45.75005" lon="3.08437">
        <ele>450.640693</ele>
        <time>2022-08-21T13:10:19.284Z</time>
      </trkpt>
      <trkpt lat="45.75006" lon="3.08458">
        <ele>450.640693</ele>
        <time>2022-08-21T13:10:22.047Z</time>
      </trkpt>
      <trkpt lat="45.75006" lon="3.08464">
        <ele>450.640693</ele>
        <time>2022-08-21T13:10:22.779Z</time>
      </trkpt>
      <trkpt lat="45.75007" lon="3.08476">
        <ele>450.640693</ele>
        <time>2022-08-21T13:10:24.350Z</time>
      </trkpt>
      <trkpt lat="45.75009" lon="3.0849">
        <ele>450.640693</ele>
        <time>2022-08-21T13:10:26.360Z</time>
      </trkpt>
      <trkpt lat="45.75009" lon="3.08494">
        <ele>450.640693</ele>
        <time>2022-08-21T13:10:26.847Z</time>
      </trkpt>
      <trkpt lat="45.75012" lon="3.08517">
        <ele>450.640693</ele>
        <time>2022-08-21T13:10:29.913Z</time>
      </trkpt>
      <trkpt lat="45.75016" lon="3.08549">
        <ele>450.640693</ele>
        <time>2022-08-21T13:10:34.285Z</time>
      </trkpt>
      <trkpt lat="45.75023" lon="3.08555">
        <ele>450.640693</ele>
        <time>2022-08-21T13:10:36.059Z</time>
      </trkpt>
      <trkpt lat="45.75023" lon="3.08556">
        <ele>450.640693</ele>
        <time>2022-08-21T13:10:36.092Z</time>
      </trkpt>
    </trkseg>
  </trk>
</gpx>